Observation data for Lake McClellan 2NW on 07/03/2020      Previous  Date  Next       Current Mesonet Observations  Soil Data  Daily Summary Page  Observations in Plain Language
KMC5 030500Z 18009KT 25/17 A3006 RMK A01 T02450170  RH  063%=      5-min Rain = 0
KMC5 030501Z 17010KT 25/17 A3006 RMK A01 T02460171  RH  063%=      5-min Rain = 0
KMC5 030502Z 17011KT 25/17 A3006 RMK A01 T02450172  RH  064%=      5-min Rain = 0
KMC5 030503Z 17010KT 25/17 A3006 RMK A01 T02460171  RH  063%=      5-min Rain = 0
KMC5 030504Z 17010KT 25/17 A3006 RMK A01 T02470172  RH  063%=      5-min Rain = 0
KMC5 030505Z 17010KT 25/17 A3006 RMK A01 T02470172  RH  063%=      5-min Rain = 0
KMC5 030506Z 17010KT 25/17 A3006 RMK A01 T02480173  RH  063%=      5-min Rain = 0
KMC5 030507Z 17008KT 25/17 A3006 RMK A01 T02480173  RH  063%=      5-min Rain = 0
KMC5 030508Z 16009KT 25/17 A3007 RMK A01 T02480174  RH  063%=      5-min Rain = 0
KMC5 030509Z 16009KT 25/17 A3007 RMK A01 T02480174  RH  063%=      5-min Rain = 0
KMC5 030510Z 15008KT 25/18 A3007 RMK A01 T02480175  RH  064%=      5-min Rain = 0
KMC5 030511Z 15008KT 25/18 A3007 RMK A01 T02480175  RH  064%=      5-min Rain = 0
KMC5 030512Z 14006KT 25/18 A3007 RMK A01 T02480176  RH  064%=      5-min Rain = 0
KMC5 030513Z 12006KT 25/18 A3007 RMK A01 T02460176  RH  065%=      5-min Rain = 0
KMC5 030514Z 12006KT 24/18 A3007 RMK A01 T02440176  RH  066%=      5-min Rain = 0
KMC5 030515Z 13006KT 24/18 A3007 RMK A01 T02430176  RH  066%=      5-min Rain = 0
KMC5 030516Z 14007KT 24/18 A3007 RMK A01 T02420175  RH  066%=      5-min Rain = 0
KMC5 030517Z 14008KT 24/17 A3007 RMK A01 T02430174  RH  065%=      5-min Rain = 0
KMC5 030518Z 15007KT 25/17 A3007 RMK A01 T02460174  RH  064%=      5-min Rain = 0
KMC5 030519Z 15007KT 25/18 A3007 RMK A01 T02480175  RH  064%=      5-min Rain = 0
KMC5 030520Z 15007KT 25/18 A3007 RMK A01 T02480175  RH  064%=      5-min Rain = 0
KMC5 030521Z 15007KT 25/18 A3007 RMK A01 T02490175  RH  063%=      5-min Rain = 0
KMC5 030522Z 14007KT 25/18 A3007 RMK A01 T02500176  RH  064%=      5-min Rain = 0
KMC5 030523Z 14007KT 25/18 A3007 RMK A01 T02490177  RH  064%=      5-min Rain = 0
KMC5 030524Z 14007KT 25/18 A3007 RMK A01 T02480176  RH  064%=      5-min Rain = 0
KMC5 030525Z 13006KT 25/18 A3007 RMK A01 T02480178  RH  065%=      5-min Rain = 0
KMC5 030526Z 13006KT 25/18 A3007 RMK A01 T02470178  RH  065%=      5-min Rain = 0
KMC5 030527Z 13006KT 25/18 A3007 RMK A01 T02460178  RH  066%=      5-min Rain = 0
KMC5 030528Z 13005KT 25/18 A3007 RMK A01 T02450179  RH  066%=      5-min Rain = 0
KMC5 030529Z 13006KT 25/18 A3007 RMK A01 T02450178  RH  067%=      5-min Rain = 0
KMC5 030530Z 13006KT 24/18 A3007 RMK A01 T02440179  RH  067%=      5-min Rain = 0
KMC5 030531Z 13005KT 24/18 A3007 RMK A01 T02440179  RH  067%=      5-min Rain = 0
KMC5 030532Z 13005KT 24/18 A3007 RMK A01 T02440179  RH  067%=      5-min Rain = 0
KMC5 030533Z 14006KT 24/18 A3007 RMK A01 T02430179  RH  068%=      5-min Rain = 0
KMC5 030534Z 14006KT 24/18 A3007 RMK A01 T02430179  RH  068%=      5-min Rain = 0
KMC5 030535Z 15006KT 24/18 A3007 RMK A01 T02430179  RH  067%=      5-min Rain = 0
KMC5 030536Z 15006KT 24/18 A3007 RMK A01 T02440180  RH  068%=      5-min Rain = 0
KMC5 030537Z 15007KT 24/18 A3007 RMK A01 T02440180  RH  067%=      5-min Rain = 0
KMC5 030538Z 15006KT 25/18 A3007 RMK A01 T02450180  RH  067%=      5-min Rain = 0
KMC5 030539Z 16006KT 25/18 A3007 RMK A01 T02460181  RH  067%=      5-min Rain = 0
KMC5 030540Z 16007KT 25/18 A3007 RMK A01 T02450181  RH  067%=      5-min Rain = 0
KMC5 030541Z 16007KT 25/18 A3007 RMK A01 T02460180  RH  067%=      5-min Rain = 0
KMC5 030542Z 15008KT 25/18 A3007 RMK A01 T02460181  RH  067%=      5-min Rain = 0
KMC5 030543Z 15007KT 25/18 A3007 RMK A01 T02470181  RH  067%=      5-min Rain = 0
KMC5 030544Z 15007KT 25/18 A3007 RMK A01 T02470181  RH  067%=      5-min Rain = 0
KMC5 030545Z 16007KT 25/18 A3007 RMK A01 T02470181  RH  066%=      5-min Rain = 0
KMC5 030546Z 16007KT 25/18 A3007 RMK A01 T02470181  RH  067%=      5-min Rain = 0
KMC5 030547Z 16008KT 25/18 A3007 RMK A01 T02470182  RH  067%=      5-min Rain = 0
KMC5 030548Z 17007KT 25/18 A3007 RMK A01 T02470181  RH  067%=      5-min Rain = 0
KMC5 030549Z 17008KT 25/18 A3007 RMK A01 T02470180  RH  066%=      5-min Rain = 0
KMC5 030550Z 17008KT 25/18 A3007 RMK A01 T02470181  RH  067%=      5-min Rain = 0
KMC5 030551Z 17009KT 25/18 A3007 RMK A01 T02470181  RH  067%=      5-min Rain = 0
KMC5 030552Z 17009KT 25/18 A3007 RMK A01 T02470181  RH  066%=      5-min Rain = 0
KMC5 030553Z 17009KT 25/18 A3007 RMK A01 T02480180  RH  066%=      5-min Rain = 0
KMC5 030554Z 17009KT 25/18 A3007 RMK A01 T02490181  RH  066%=      5-min Rain = 0
KMC5 030555Z 18009KT 25/18 A3007 RMK A01 T02490181  RH  066%=      5-min Rain = 0
KMC5 030556Z 18009KT 25/18 A3007 RMK A01 T02480183  RH  067%=      5-min Rain = 0
KMC5 030557Z 19008KT 25/18 A3007 RMK A01 T02470183  RH  068%=      5-min Rain = 0
KMC5 030558Z 19008KT 25/18 A3007 RMK A01 T02470183  RH  068%=      5-min Rain = 0
KMC5 030559Z 20008KT 25/18 A3007 RMK A01 T02460184  RH  068%=      5-min Rain = 0
KMC5 030600Z 20007KT 25/18 A3007 RMK A01 T02450184  RH  069%=      5-min Rain = 0
KMC5 030601Z 21005KT 24/18 A3007 RMK A01 T02430184  RH  069%=      5-min Rain = 0
KMC5 030602Z 20006KT 24/18 A3007 RMK A01 T02410184  RH  071%=      5-min Rain = 0
KMC5 030603Z 20007KT 24/18 A3007 RMK A01 T02400184  RH  071%=      5-min Rain = 0
KMC5 030604Z 20007KT 24/18 A3007 RMK A01 T02400183  RH  071%=      5-min Rain = 0
KMC5 030605Z 20008KT 24/18 A3007 RMK A01 T02410183  RH  070%=      5-min Rain = 0
KMC5 030606Z 19009KT 24/18 A3007 RMK A01 T02420183  RH  070%=      5-min Rain = 0
KMC5 030607Z 19009KT 24/18 A3007 RMK A01 T02430182  RH  069%=      5-min Rain = 0
KMC5 030608Z 19009KT 25/18 A3007 RMK A01 T02460182  RH  068%=      5-min Rain = 0
KMC5 030609Z 18010KT 25/18 A3007 RMK A01 T02480183  RH  067%=      5-min Rain = 0
KMC5 030610Z 18010KT 25/18 A3007 RMK A01 T02490182  RH  067%=      5-min Rain = 0
KMC5 030611Z 18010KT 25/18 A3007 RMK A01 T02490182  RH  066%=      5-min Rain = 0
KMC5 030612Z 18010KT 25/18 A3007 RMK A01 T02490182  RH  066%=      5-min Rain = 0
KMC5 030613Z 19010KT 25/18 A3007 RMK A01 T02490183  RH  066%=      5-min Rain = 0
KMC5 030614Z 19009KT 25/18 A3007 RMK A01 T02490183  RH  067%=      5-min Rain = 0
KMC5 030615Z 20009KT 25/18 A3007 RMK A01 T02480183  RH  067%=      5-min Rain = 0
KMC5 030616Z 20008KT 25/18 A3007 RMK A01 T02470183  RH  068%=      5-min Rain = 0
KMC5 030617Z 20008KT 25/18 A3007 RMK A01 T02460183  RH  068%=      5-min Rain = 0
KMC5 030618Z 20007KT 24/18 A3007 RMK A01 T02440184  RH  069%=      5-min Rain = 0
KMC5 030619Z 21007KT 24/18 A3007 RMK A01 T02420183  RH  070%=      5-min Rain = 0
KMC5 030620Z 21007KT 24/18 A3007 RMK A01 T02400184  RH  071%=      5-min Rain = 0
KMC5 030621Z 21007KT 24/18 A3007 RMK A01 T02390184  RH  071%=      5-min Rain = 0
KMC5 030622Z 21006KT 24/18 A3007 RMK A01 T02380184  RH  072%=      5-min Rain = 0
KMC5 030623Z 21006KT 24/19 A3007 RMK A01 T02380185  RH  072%=      5-min Rain = 0
KMC5 030624Z 22006KT 24/19 A3007 RMK A01 T02370185  RH  073%=      5-min Rain = 0
KMC5 030625Z 22006KT 24/19 A3007 RMK A01 T02360185  RH  073%=      5-min Rain = 0
KMC5 030626Z 21006KT 24/19 A3007 RMK A01 T02350185  RH  074%=      5-min Rain = 0
KMC5 030627Z 22006KT 23/19 A3006 RMK A01 T02340185  RH  074%=      5-min Rain = 0
KMC5 030628Z 22007KT 23/18 A3006 RMK A01 T02340184  RH  073%=      5-min Rain = 0
KMC5 030629Z 22007KT 24/19 A3006 RMK A01 T02350185  RH  074%=      5-min Rain = 0
KMC5 030630Z 22007KT 23/19 A3006 RMK A01 T02340185  RH  074%=      5-min Rain = 0
KMC5 030631Z 22008KT 23/19 A3006 RMK A01 T02340185  RH  074%=      5-min Rain = 0
KMC5 030632Z 22008KT 23/18 A3006 RMK A01 T02340184  RH  074%=      5-min Rain = 0
KMC5 030633Z 21009KT 24/18 A3006 RMK A01 T02350184  RH  073%=      5-min Rain = 0
KMC5 030634Z 21009KT 24/18 A3006 RMK A01 T02360184  RH  072%=      5-min Rain = 0
KMC5 030635Z 21008KT 24/18 A3007 RMK A01 T02370184  RH  072%=      5-min Rain = 0
KMC5 030636Z 21010KT 24/19 A3007 RMK A01 T02380185  RH  072%=      5-min Rain = 0
KMC5 030637Z 21009KT 24/18 A3006 RMK A01 T02390184  RH  071%=      5-min Rain = 0
KMC5 030638Z 20010KT 24/18 A3006 RMK A01 T02410184  RH  070%=      5-min Rain = 0
KMC5 030639Z 20010KT 24/18 A3006 RMK A01 T02420184  RH  070%=      5-min Rain = 0
KMC5 030640Z 20009KT 24/18 A3006 RMK A01 T02430183  RH  069%=      5-min Rain = 0
KMC5 030641Z 19010KT 25/18 A3006 RMK A01 T02450184  RH  069%=      5-min Rain = 0
KMC5 030642Z 19010KT 25/18 A3006 RMK A01 T02460184  RH  068%=      5-min Rain = 0
KMC5 030643Z 19010KT 25/18 A3006 RMK A01 T02470184  RH  068%=      5-min Rain = 0
KMC5 030644Z 19009KT 25/18 A3006 RMK A01 T02470183  RH  068%=      5-min Rain = 0
KMC5 030645Z 19009KT 25/18 A3007 RMK A01 T02480184  RH  068%=      5-min Rain = 0
KMC5 030646Z 19009KT 25/18 A3007 RMK A01 T02480184  RH  068%=      5-min Rain = 0
KMC5 030647Z 19010KT 25/18 A3007 RMK A01 T02480184  RH  068%=      5-min Rain = 0
KMC5 030648Z 20009KT 25/18 A3007 RMK A01 T02480184  RH  067%=      5-min Rain = 0
KMC5 030649Z 21008KT 25/19 A3007 RMK A01 T02490185  RH  068%=      5-min Rain = 0
KMC5 030650Z 21009KT 25/19 A3007 RMK A01 T02480185  RH  068%=      5-min Rain = 0
KMC5 030651Z 22007KT 25/19 A3007 RMK A01 T02460185  RH  069%=      5-min Rain = 0
KMC5 030652Z 22006KT 24/19 A3007 RMK A01 T02440185  RH  070%=      5-min Rain = 0
KMC5 030653Z 22006KT 24/19 A3007 RMK A01 T02430185  RH  070%=      5-min Rain = 0
KMC5 030654Z 22005KT 24/19 A3007 RMK A01 T02420185  RH  071%=      5-min Rain = 0
KMC5 030655Z 23005KT 24/19 A3007 RMK A01 T02420185  RH  071%=      5-min Rain = 0
KMC5 030656Z 23005KT 24/19 A3006 RMK A01 T02420185  RH  071%=      5-min Rain = 0
KMC5 030657Z 23005KT 24/18 A3006 RMK A01 T02410184  RH  070%=      5-min Rain = 0
KMC5 030658Z 23005KT 24/18 A3006 RMK A01 T02420183  RH  070%=      5-min Rain = 0
KMC5 030659Z 23005KT 24/18 A3006 RMK A01 T02430184  RH  070%=      5-min Rain = 0
KMC5 030700Z 23005KT 24/19 A3006 RMK A01 T02430187  RH  071%=      5-min Rain = 0
KMC5 030701Z 23006KT 24/19 A3006 RMK A01 T02420186  RH  071%=      5-min Rain = 0
KMC5 030702Z 23006KT 24/19 A3006 RMK A01 T02420187  RH  072%=      5-min Rain = 0
KMC5 030703Z 23006KT 24/19 A3006 RMK A01 T02410187  RH  072%=      5-min Rain = 0
KMC5 030704Z 23006KT 24/19 A3006 RMK A01 T02400188  RH  073%=      5-min Rain = 0
KMC5 030705Z 23005KT 24/19 A3006 RMK A01 T02390188  RH  073%=      5-min Rain = 0
KMC5 030706Z 24006KT 24/19 A3006 RMK A01 T02370188  RH  074%=      5-min Rain = 0
KMC5 030707Z 24008KT 24/19 A3006 RMK A01 T02360189  RH  075%=      5-min Rain = 0
KMC5 030708Z 23010KT 24/19 A3006 RMK A01 T02360189  RH  075%=      5-min Rain = 0
KMC5 030709Z 22009KT 24/19 A3005 RMK A01 T02360188  RH  075%=      5-min Rain = 0
KMC5 030710Z 22008KT 24/19 A3005 RMK A01 T02360188  RH  074%=      5-min Rain = 0
KMC5 030711Z 22008KT 24/19 A3005 RMK A01 T02360188  RH  074%=      5-min Rain = 0
KMC5 030712Z 23007KT 24/19 A3005 RMK A01 T02360188  RH  074%=      5-min Rain = 0
KMC5 030713Z 23006KT 24/19 A3005 RMK A01 T02360189  RH  075%=      5-min Rain = 0
KMC5 030714Z 23007KT 24/19 A3005 RMK A01 T02350189  RH  075%=      5-min Rain = 0
KMC5 030715Z 23008KT 23/19 A3005 RMK A01 T02340189  RH  076%=      5-min Rain = 0
KMC5 030716Z 23009KT 23/19 A3005 RMK A01 T02330188  RH  076%=      5-min Rain = 0
KMC5 030717Z 23009KT 23/19 A3005 RMK A01 T02330188  RH  076%=      5-min Rain = 0
KMC5 030718Z 22009KT 23/19 A3005 RMK A01 T02340189  RH  076%=      5-min Rain = 0
KMC5 030719Z 22009KT 24/19 A3005 RMK A01 T02350190  RH  076%=      5-min Rain = 0
KMC5 030720Z 22009KT 24/19 A3005 RMK A01 T02350189  RH  075%=      5-min Rain = 0
KMC5 030721Z 22009KT 24/19 A3005 RMK A01 T02360189  RH  075%=      5-min Rain = 0
KMC5 030722Z 23007KT 24/19 A3005 RMK A01 T02360189  RH  075%=      5-min Rain = 0
KMC5 030723Z 24006KT 24/19 A3005 RMK A01 T02350190  RH  076%=      5-min Rain = 0
KMC5 030724Z 25005KT 23/19 A3005 RMK A01 T02340189  RH  076%=      5-min Rain = 0
KMC5 030725Z 24006KT 23/19 A3004 RMK A01 T02320188  RH  076%=      5-min Rain = 0
KMC5 030726Z 24005KT 23/19 A3004 RMK A01 T02320188  RH  076%=      5-min Rain = 0
KMC5 030727Z 24006KT 23/19 A3004 RMK A01 T02330188  RH  076%=      5-min Rain = 0
KMC5 030728Z 24006KT 23/19 A3004 RMK A01 T02330189  RH  076%=      5-min Rain = 0
KMC5 030729Z 24006KT 23/19 A3004 RMK A01 T02320188  RH  077%=      5-min Rain = 0
KMC5 030730Z 24005KT 23/19 A3004 RMK A01 T02300189  RH  077%=      5-min Rain = 0
KMC5 030731Z 24006KT 23/19 A3004 RMK A01 T02300188  RH  077%=      5-min Rain = 0
KMC5 030732Z 24004KT 23/19 A3004 RMK A01 T02300188  RH  077%=      5-min Rain = 0
KMC5 030733Z 24004KT 23/19 A3004 RMK A01 T02300188  RH  077%=      5-min Rain = 0
KMC5 030734Z 24005KT 23/19 A3004 RMK A01 T02300189  RH  077%=      5-min Rain = 0
KMC5 030735Z 24005KT 23/19 A3004 RMK A01 T02300188  RH  077%=      5-min Rain = 0
KMC5 030736Z 24006KT 23/19 A3004 RMK A01 T02300188  RH  078%=      5-min Rain = 0
KMC5 030737Z 24005KT 23/19 A3004 RMK A01 T02300189  RH  078%=      5-min Rain = 0
KMC5 030738Z 23006KT 23/19 A3004 RMK A01 T02300188  RH  077%=      5-min Rain = 0
KMC5 030739Z 23005KT 23/19 A3004 RMK A01 T02300188  RH  077%=      5-min Rain = 0
KMC5 030740Z 24005KT 23/19 A3004 RMK A01 T02300188  RH  077%=      5-min Rain = 0
KMC5 030741Z 23006KT 23/19 A3004 RMK A01 T02300188  RH  077%=      5-min Rain = 0
KMC5 030742Z 23006KT 23/19 A3004 RMK A01 T02300188  RH  077%=      5-min Rain = 0
KMC5 030743Z 23006KT 23/19 A3004 RMK A01 T02310188  RH  077%=      5-min Rain = 0
KMC5 030744Z 24005KT 23/19 A3004 RMK A01 T02300189  RH  078%=      5-min Rain = 0
KMC5 030745Z 24005KT 23/19 A3004 RMK A01 T02290189  RH  078%=      5-min Rain = 0
KMC5 030746Z 24005KT 23/19 A3004 RMK A01 T02290189  RH  078%=      5-min Rain = 0
KMC5 030747Z 24006KT 23/19 A3004 RMK A01 T02290188  RH  078%=      5-min Rain = 0
KMC5 030748Z 24005KT 23/19 A3004 RMK A01 T02300188  RH  078%=      5-min Rain = 0
KMC5 030749Z 24007KT 23/19 A3003 RMK A01 T02300188  RH  078%=      5-min Rain = 0
KMC5 030750Z 24007KT 23/19 A3003 RMK A01 T02300188  RH  078%=      5-min Rain = 0
KMC5 030751Z 24007KT 23/19 A3003 RMK A01 T02310188  RH  077%=      5-min Rain = 0
KMC5 030752Z 24007KT 23/19 A3003 RMK A01 T02320189  RH  077%=      5-min Rain = 0
KMC5 030753Z 24007KT 23/19 A3003 RMK A01 T02320188  RH  076%=      5-min Rain = 0
KMC5 030754Z 25008KT 24/19 A3003 RMK A01 T02350188  RH  075%=      5-min Rain = 0
KMC5 030755Z 26008KT 24/19 A3003 RMK A01 T02360190  RH  075%=      5-min Rain = 0
KMC5 030756Z 26008KT 23/19 A3003 RMK A01 T02340190  RH  076%=      5-min Rain = 0
KMC5 030757Z 26008KT 23/19 A3003 RMK A01 T02320190  RH  077%=      5-min Rain = 0
KMC5 030758Z 25009KT 23/19 A3003 RMK A01 T02310189  RH  077%=      5-min Rain = 0
KMC5 030759Z 24009KT 23/19 A3003 RMK A01 T02320189  RH  077%=      5-min Rain = 0
KMC5 030800Z 23009KT 23/19 A3003 RMK A01 T02330189  RH  076%=      5-min Rain = 0
KMC5 030801Z 23010KT 23/19 A3003 RMK A01 T02340189  RH  076%=      5-min Rain = 0
KMC5 030802Z 22008KT 24/19 A3003 RMK A01 T02360190  RH  075%=      5-min Rain = 0
KMC5 030803Z 23008KT 24/19 A3003 RMK A01 T02350190  RH  076%=      5-min Rain = 0
KMC5 030804Z 22008KT 23/19 A3004 RMK A01 T02320190  RH  077%=      5-min Rain = 0
KMC5 030805Z 23007KT 23/19 A3003 RMK A01 T02310189  RH  077%=      5-min Rain = 0
KMC5 030806Z 24007KT 23/19 A3003 RMK A01 T02300189  RH  078%=      5-min Rain = 0
KMC5 030807Z 24006KT 23/19 A3003 RMK A01 T02300190  RH  078%=      5-min Rain = 0
KMC5 030808Z 23007KT 23/19 A3003 RMK A01 T02300189  RH  078%=      5-min Rain = 0
KMC5 030809Z 24007KT 23/19 A3003 RMK A01 T02300189  RH  078%=      5-min Rain = 0
KMC5 030810Z 23007KT 23/19 A3003 RMK A01 T02300188  RH  078%=      5-min Rain = 0
KMC5 030811Z 23007KT 23/19 A3003 RMK A01 T02310189  RH  077%=      5-min Rain = 0
KMC5 030812Z 23007KT 23/19 A3003 RMK A01 T02320190  RH  077%=      5-min Rain = 0
KMC5 030813Z 23007KT 23/19 A3003 RMK A01 T02320190  RH  077%=      5-min Rain = 0
KMC5 030814Z 23007KT 23/19 A3003 RMK A01 T02300190  RH  078%=      5-min Rain = 0
KMC5 030815Z 22008KT 23/19 A3003 RMK A01 T02300190  RH  078%=      5-min Rain = 0
KMC5 030816Z 22007KT 23/19 A3003 RMK A01 T02290191  RH  079%=      5-min Rain = 0
KMC5 030817Z 22007KT 23/19 A3003 RMK A01 T02280191  RH  079%=      5-min Rain = 0
KMC5 030818Z 22007KT 23/19 A3003 RMK A01 T02290190  RH  079%=      5-min Rain = 0
KMC5 030819Z 23007KT 23/19 A3003 RMK A01 T02290190  RH  079%=      5-min Rain = 0
KMC5 030820Z 23008KT 23/19 A3003 RMK A01 T02300190  RH  078%=      5-min Rain = 0
KMC5 030821Z 22007KT 23/19 A3003 RMK A01 T02300190  RH  078%=      5-min Rain = 0
KMC5 030822Z 22008KT 23/19 A3003 RMK A01 T02310190  RH  078%=      5-min Rain = 0
KMC5 030823Z 20007KT 23/19 A3004 RMK A01 T02330190  RH  077%=      5-min Rain = 0
KMC5 030824Z 19007KT 24/19 A3004 RMK A01 T02370190  RH  075%=      5-min Rain = 0
KMC5 030825Z 18004KT 24/19 A3004 RMK A01 T02410190  RH  073%=      5-min Rain = 0
KMC5 030826Z 14004KT 24/19 A3004 RMK A01 T02430191  RH  072%=      5-min Rain = 0
KMC5 030827Z 09006KT 24/19 A3004 RMK A01 T02440190  RH  072%=      5-min Rain = 0
KMC5 030828Z 08010KT 24/19 A3004 RMK A01 T02430191  RH  073%=      5-min Rain = 0
KMC5 030829Z 08010KT 24/19 A3004 RMK A01 T02380191  RH  075%=      5-min Rain = 0
KMC5 030830Z 08013KT 24/19 A3005 RMK A01 T02350191  RH  076%=      5-min Rain = 0
KMC5 030831Z 07009KT 24/19 A3005 RMK A01 T02370190  RH  075%=      5-min Rain = 0
KMC5 030832Z 09002G7KT 24/19 A3005 RMK A01 T02390191  RH  075%=      5-min Rain = 0
KMC5 030833Z 10001G6KT 24/19 A3005 RMK A01 T02390190  RH  074%=      5-min Rain = 0
KMC5 030834Z 11006KT 24/19 A3006 RMK A01 T02410190  RH  073%=      5-min Rain = 0
KMC5 030835Z 12007KT 24/19 A3006 RMK A01 T02430190  RH  072%=      5-min Rain = 0
KMC5 030836Z 09009KT 25/19 A3005 RMK A01 T02470189  RH  070%=      5-min Rain = 0
KMC5 030837Z 08010KT 25/19 A3005 RMK A01 T02510190  RH  069%=      5-min Rain = 0
KMC5 030838Z 13009KT 25/19 A3006 RMK A01 T02530189  RH  068%=      5-min Rain = 0
KMC5 030839Z 18009KT 26/19 A3006 RMK A01 T02550189  RH  067%=      5-min Rain = 0
KMC5 030840Z 07006KT 26/19 A3006 RMK A01 T02570189  RH  066%=      5-min Rain = 0
KMC5 030841Z 05007KT 25/19 A3006 RMK A01 T02540192  RH  068%=      5-min Rain = 0
KMC5 030842Z 06009KT 25/19 A3006 RMK A01 T02470192  RH  071%=      5-min Rain = 0
KMC5 030843Z 06009KT 24/19 A3006 RMK A01 T02410192  RH  074%=      5-min Rain = 0
KMC5 030844Z 06008KT 24/19 A3006 RMK A01 T02380193  RH  076%=      5-min Rain = 0
KMC5 030845Z 06008KT 24/19 A3006 RMK A01 T02350192  RH  077%=      5-min Rain = 0
KMC5 030846Z 07008KT 23/19 A3007 RMK A01 T02330193  RH  078%=      5-min Rain = 0
KMC5 030847Z 06008KT 23/19 A3007 RMK A01 T02320193  RH  079%=      5-min Rain = 0
KMC5 030848Z 07009KT 23/19 A3007 RMK A01 T02320192  RH  078%=      5-min Rain = 0
KMC5 030849Z 07008KT 23/19 A3007 RMK A01 T02330192  RH  078%=      5-min Rain = 0
KMC5 030850Z 08007KT 23/19 A3007 RMK A01 T02340192  RH  077%=      5-min Rain = 0
KMC5 030851Z 07008KT 23/19 A3007 RMK A01 T02340193  RH  077%=      5-min Rain = 0
KMC5 030852Z 08009KT 23/19 A3007 RMK A01 T02340192  RH  077%=      5-min Rain = 0
KMC5 030853Z 08008KT 24/19 A3007 RMK A01 T02350193  RH  077%=      5-min Rain = 0
KMC5 030854Z 08008KT 23/19 A3007 RMK A01 T02340193  RH  078%=      5-min Rain = 0
KMC5 030855Z 08009KT 23/19 A3007 RMK A01 T02340193  RH  078%=      5-min Rain = 0
KMC5 030856Z 08008KT 23/19 A3007 RMK A01 T02330194  RH  079%=      5-min Rain = 0
KMC5 030857Z 08008KT 23/19 A3007 RMK A01 T02320194  RH  079%=      5-min Rain = 0
KMC5 030858Z 08008KT 23/19 A3007 RMK A01 T02310194  RH  079%=      5-min Rain = 0
KMC5 030859Z 08008KT 23/19 A3007 RMK A01 T02310194  RH  080%=      5-min Rain = 0
KMC5 030900Z 08008KT 23/20 A3007 RMK A01 T02310195  RH  080%=      5-min Rain = 0
KMC5 030901Z 09009KT 23/19 A3007 RMK A01 T02300194  RH  080%=      5-min Rain = 0
KMC5 030902Z 09009KT 23/19 A3007 RMK A01 T02300194  RH  080%=      5-min Rain = 0
KMC5 030903Z 09008KT 23/19 A3007 RMK A01 T02310194  RH  079%=      5-min Rain = 0
KMC5 030904Z 08008KT 23/19 A3007 RMK A01 T02320194  RH  079%=      5-min Rain = 0
KMC5 030905Z 08007KT 23/19 A3007 RMK A01 T02320194  RH  079%=      5-min Rain = 0
KMC5 030906Z 08007KT 23/20 A3007 RMK A01 T02310195  RH  080%=      5-min Rain = 0
KMC5 030907Z 08007KT 23/20 A3007 RMK A01 T02300195  RH  080%=      5-min Rain = 0
KMC5 030908Z 08007KT 23/19 A3007 RMK A01 T02290194  RH  081%=      5-min Rain = 0
KMC5 030909Z 08006KT 23/19 A3007 RMK A01 T02290193  RH  080%=      5-min Rain = 0
KMC5 030910Z 08006KT 23/19 A3007 RMK A01 T02300194  RH  080%=      5-min Rain = 0
KMC5 030911Z 07006KT 23/19 A3007 RMK A01 T02300194  RH  080%=      5-min Rain = 0
KMC5 030912Z 06005KT 23/19 A3007 RMK A01 T02300194  RH  080%=      5-min Rain = 0
KMC5 030913Z 06005KT 23/19 A3007 RMK A01 T02300194  RH  080%=      5-min Rain = 0
KMC5 030914Z 06006KT 23/19 A3007 RMK A01 T02290194  RH  081%=      5-min Rain = 0
KMC5 030915Z 05006KT 23/19 A3007 RMK A01 T02280194  RH  081%=      5-min Rain = 0
KMC5 030916Z 05006KT 23/19 A3007 RMK A01 T02270194  RH  082%=      5-min Rain = 0
KMC5 030917Z 06007KT 23/19 A3007 RMK A01 T02270194  RH  082%=      5-min Rain = 0
KMC5 030918Z 06006KT 23/19 A3007 RMK A01 T02270194  RH  082%=      5-min Rain = 0
KMC5 030919Z 06007KT 23/19 A3007 RMK A01 T02260194  RH  082%=      5-min Rain = 0
KMC5 030920Z 06006KT 23/19 A3007 RMK A01 T02260194  RH  082%=      5-min Rain = 0
KMC5 030921Z 07007KT 23/19 A3007 RMK A01 T02250193  RH  082%=      5-min Rain = 0
KMC5 030922Z 07007KT 23/19 A3007 RMK A01 T02260193  RH  081%=      5-min Rain = 0
KMC5 030923Z 07006KT 23/19 A3007 RMK A01 T02270193  RH  081%=      5-min Rain = 0
KMC5 030924Z 07005KT 23/19 A3007 RMK A01 T02270193  RH  081%=      5-min Rain = 0
KMC5 030925Z 07005KT 23/19 A3007 RMK A01 T02270193  RH  081%=      5-min Rain = 0
KMC5 030926Z 07004KT 23/19 A3007 RMK A01 T02260193  RH  081%=      5-min Rain = 0
KMC5 030927Z 07004KT 23/19 A3007 RMK A01 T02260193  RH  081%=      5-min Rain = 0
KMC5 030928Z 07005KT 23/19 A3007 RMK A01 T02260192  RH  081%=      5-min Rain = 0
KMC5 030929Z 07005KT 23/19 A3006 RMK A01 T02260192  RH  081%=      5-min Rain = 0
KMC5 030930Z 07004KT 23/19 A3006 RMK A01 T02260193  RH  081%=      5-min Rain = 0
KMC5 030931Z 07004KT 23/19 A3006 RMK A01 T02260192  RH  081%=      5-min Rain = 0
KMC5 030932Z 06003KT 23/19 A3006 RMK A01 T02250193  RH  082%=      5-min Rain = 0
KMC5 030933Z 06002KT 22/19 A3006 RMK A01 T02240192  RH  082%=      5-min Rain = 0
KMC5 030934Z 06002KT 22/19 A3006 RMK A01 T02240192  RH  082%=      5-min Rain = 0
KMC5 030935Z 07003KT 22/19 A3006 RMK A01 T02240192  RH  082%=      5-min Rain = 0
KMC5 030936Z 06003KT 22/19 A3006 RMK A01 T02240192  RH  082%=      5-min Rain = 0
KMC5 030937Z 06003KT 22/19 A3006 RMK A01 T02230192  RH  082%=      5-min Rain = 0
KMC5 030938Z 06003KT 22/19 A3006 RMK A01 T02230192  RH  083%=      5-min Rain = 0
KMC5 030939Z 07003KT 22/19 A3006 RMK A01 T02230192  RH  082%=      5-min Rain = 0
KMC5 030940Z 07003KT 22/19 A3006 RMK A01 T02230192  RH  083%=      5-min Rain = 0
KMC5 030941Z 07003KT 22/19 A3006 RMK A01 T02230192  RH  083%=      5-min Rain = 0
KMC5 030942Z 09004KT 22/19 A3006 RMK A01 T02240192  RH  083%=      5-min Rain = 0
KMC5 030943Z 09003KT 22/19 A3006 RMK A01 T02230192  RH  082%=      5-min Rain = 0
KMC5 030944Z 09003KT 22/19 A3006 RMK A01 T02240192  RH  082%=      5-min Rain = 0
KMC5 030945Z 09003KT 23/19 A3006 RMK A01 T02250192  RH  082%=      5-min Rain = 0
KMC5 030946Z 09002KT 23/19 A3006 RMK A01 T02250192  RH  082%=      5-min Rain = 0
KMC5 030947Z 10002KT 23/19 A3006 RMK A01 T02250192  RH  082%=      5-min Rain = 0
KMC5 030948Z 09002KT 22/19 A3006 RMK A01 T02240192  RH  082%=      5-min Rain = 0
KMC5 030949Z 10003KT 22/19 A3006 RMK A01 T02240192  RH  082%=      5-min Rain = 0
KMC5 030950Z 10004KT 22/19 A3006 RMK A01 T02240192  RH  082%=      5-min Rain = 0
KMC5 030951Z 10004KT 22/19 A3007 RMK A01 T02240192  RH  082%=      5-min Rain = 0
KMC5 030952Z 10004KT 22/19 A3007 RMK A01 T02240192  RH  082%=      5-min Rain = 0
KMC5 030953Z 10004KT 22/19 A3007 RMK A01 T02230192  RH  082%=      5-min Rain = 0
KMC5 030954Z 10004KT 22/19 A3007 RMK A01 T02220192  RH  083%=      5-min Rain = 0
KMC5 030955Z 10004KT 22/19 A3007 RMK A01 T02220192  RH  083%=      5-min Rain = 0
KMC5 030956Z 09004KT 22/19 A3007 RMK A01 T02210192  RH  083%=      5-min Rain = 0
KMC5 030957Z 09004KT 22/19 A3007 RMK A01 T02210192  RH  084%=      5-min Rain = 0
KMC5 030958Z 08004KT 22/19 A3007 RMK A01 T02210192  RH  084%=      5-min Rain = 0
KMC5 030959Z 08004KT 22/19 A3007 RMK A01 T02210192  RH  084%=      5-min Rain = 0
KMC5 031000Z 08004KT 22/19 A3007 RMK A01 T02210192  RH  084%=      5-min Rain = 0
KMC5 031001Z 07004KT 22/19 A3007 RMK A01 T02210192  RH  084%=      5-min Rain = 0
KMC5 031002Z 06004KT 22/19 A3007 RMK A01 T02210192  RH  084%=      5-min Rain = 0
KMC5 031003Z 06004KT 22/19 A3007 RMK A01 T02200192  RH  084%=      5-min Rain = 0
KMC5 031004Z 05004KT 22/19 A3008 RMK A01 T02190192  RH  084%=      5-min Rain = 0
KMC5 031005Z 05005KT 22/19 A3008 RMK A01 T02180192  RH  085%=      5-min Rain = 0
KMC5 031006Z 06005KT 22/19 A3008 RMK A01 T02170191  RH  085%=      5-min Rain = 0
KMC5 031007Z 05005KT 22/19 A3008 RMK A01 T02150191  RH  086%=      5-min Rain = 0
KMC5 031008Z 05005KT 22/19 A3008 RMK A01 T02150192  RH  087%=      5-min Rain = 0
KMC5 031009Z 05005KT 22/19 A3008 RMK A01 T02150192  RH  087%=      5-min Rain = 0
KMC5 031010Z 06005KT 22/19 A3008 RMK A01 T02150192  RH  086%=      5-min Rain = 0
KMC5 031011Z 06005KT 22/19 A3008 RMK A01 T02160192  RH  086%=      5-min Rain = 0
KMC5 031012Z 06006KT 22/19 A3008 RMK A01 T02150192  RH  086%=      5-min Rain = 0
KMC5 031013Z 06005KT 22/19 A3008 RMK A01 T02150192  RH  087%=      5-min Rain = 0
KMC5 031014Z 05006KT 21/19 A3008 RMK A01 T02140192  RH  087%=      5-min Rain = 0
KMC5 031015Z 05005KT 21/19 A3008 RMK A01 T02130192  RH  087%=      5-min Rain = 0
KMC5 031016Z 05005KT 21/19 A3008 RMK A01 T02120191  RH  088%=      5-min Rain = 0
KMC5 031017Z 05005KT 21/19 A3008 RMK A01 T02110191  RH  088%=      5-min Rain = 0
KMC5 031018Z 05004KT 21/19 A3008 RMK A01 T02110191  RH  089%=      5-min Rain = 0
KMC5 031019Z 05004KT 21/19 A3008 RMK A01 T02100191  RH  089%=      5-min Rain = 0
KMC5 031020Z 05004KT 21/19 A3008 RMK A01 T02100191  RH  089%=      5-min Rain = 0
KMC5 031021Z 05004KT 21/19 A3008 RMK A01 T02110192  RH  089%=      5-min Rain = 0
KMC5 031022Z 05004KT 21/19 A3008 RMK A01 T02120192  RH  088%=      5-min Rain = 0
KMC5 031023Z 05004KT 21/19 A3008 RMK A01 T02130192  RH  088%=      5-min Rain = 0
KMC5 031024Z 05005KT 21/19 A3008 RMK A01 T02130192  RH  088%=      5-min Rain = 0
KMC5 031025Z 05005KT 21/19 A3008 RMK A01 T02130192  RH  088%=      5-min Rain = 0
KMC5 031026Z 04006KT 21/19 A3008 RMK A01 T02130192  RH  088%=      5-min Rain = 0
KMC5 031027Z 04006KT 21/19 A3008 RMK A01 T02130192  RH  088%=      5-min Rain = 0
KMC5 031028Z 04007KT 21/19 A3008 RMK A01 T02130192  RH  088%=      5-min Rain = 0
KMC5 031029Z 04006KT 21/19 A3008 RMK A01 T02130192  RH  088%=      5-min Rain = 0
KMC5 031030Z 04006KT 21/19 A3008 RMK A01 T02130192  RH  088%=      5-min Rain = 0
KMC5 031031Z 03007KT 21/19 A3008 RMK A01 T02120192  RH  088%=      5-min Rain = 0
KMC5 031032Z 03007KT 21/19 A3008 RMK A01 T02120192  RH  088%=      5-min Rain = 0
KMC5 031033Z 03007KT 21/19 A3008 RMK A01 T02110192  RH  089%=      5-min Rain = 0
KMC5 031034Z 03007KT 21/19 A3008 RMK A01 T02110192  RH  089%=      5-min Rain = 0
KMC5 031035Z 03007KT 21/19 A3008 RMK A01 T02110192  RH  089%=      5-min Rain = 0
KMC5 031036Z 03007KT 21/19 A3008 RMK A01 T02110192  RH  089%=      5-min Rain = 0
KMC5 031037Z 03007KT 21/19 A3008 RMK A01 T02110192  RH  089%=      5-min Rain = 0
KMC5 031038Z 04006KT 21/19 A3008 RMK A01 T02120193  RH  089%=      5-min Rain = 0
KMC5 031039Z 04006KT 21/19 A3008 RMK A01 T02120192  RH  089%=      5-min Rain = 0
KMC5 031040Z 04006KT 21/19 A3008 RMK A01 T02120192  RH  088%=      5-min Rain = 0
KMC5 031041Z 03006KT 21/19 A3008 RMK A01 T02130192  RH  088%=      5-min Rain = 0
KMC5 031042Z 03006KT 21/19 A3008 RMK A01 T02130192  RH  088%=      5-min Rain = 0
KMC5 031043Z 02006KT 21/19 A3009 RMK A01 T02130192  RH  088%=      5-min Rain = 0
KMC5 031044Z 02007KT 21/19 A3009 RMK A01 T02130192  RH  088%=      5-min Rain = 0
KMC5 031045Z 02007KT 21/19 A3009 RMK A01 T02130192  RH  088%=      5-min Rain = 0
KMC5 031046Z 02007KT 21/19 A3009 RMK A01 T02110192  RH  089%=      5-min Rain = 0
KMC5 031047Z 02007KT 21/19 A3009 RMK A01 T02100192  RH  089%=      5-min Rain = 0
KMC5 031048Z 02007KT 21/19 A3009 RMK A01 T02090192  RH  090%=      5-min Rain = 0
KMC5 031049Z 02007KT 21/19 A3009 RMK A01 T02090192  RH  090%=      5-min Rain = 0
KMC5 031050Z 02007KT 21/19 A3009 RMK A01 T02080192  RH  090%=      5-min Rain = 0
KMC5 031051Z 03006KT 21/19 A3009 RMK A01 T02080192  RH  090%=      5-min Rain = 0
KMC5 031052Z 03006KT 21/19 A3009 RMK A01 T02080192  RH  090%=      5-min Rain = 0
KMC5 031053Z 03006KT 21/19 A3009 RMK A01 T02070191  RH  091%=      5-min Rain = 0
KMC5 031054Z 04006KT 21/19 A3009 RMK A01 T02070192  RH  091%=      5-min Rain = 0
KMC5 031055Z 04006KT 21/19 A3009 RMK A01 T02070192  RH  091%=      5-min Rain = 0
KMC5 031056Z 04006KT 21/19 A3009 RMK A01 T02070192  RH  091%=      5-min Rain = 0
KMC5 031057Z 04005KT 21/19 A3009 RMK A01 T02070191  RH  091%=      5-min Rain = 0
KMC5 031058Z 04005KT 21/19 A3008 RMK A01 T02070191  RH  091%=      5-min Rain = 0
KMC5 031059Z 04005KT 21/19 A3008 RMK A01 T02070191  RH  091%=      5-min Rain = 0
KMC5 031100Z 04005KT 21/19 A3008 RMK A01 T02060191  RH  091%=      5-min Rain = 0
KMC5 031101Z 04005KT 21/19 A3008 RMK A01 T02060191  RH  091%=      5-min Rain = 0
KMC5 031102Z 04005KT 21/19 A3008 RMK A01 T02060191  RH  091%=      5-min Rain = 0
KMC5 031103Z 05005KT 21/19 A3008 RMK A01 T02050191  RH  091%=      5-min Rain = 0
KMC5 031104Z 05005KT 21/19 A3008 RMK A01 T02050191  RH  091%=      5-min Rain = 0
KMC5 031105Z 05005KT 21/19 A3009 RMK A01 T02060191  RH  091%=      5-min Rain = 0
KMC5 031106Z 05005KT 21/19 A3009 RMK A01 T02050191  RH  091%=      5-min Rain = 0
KMC5 031107Z 04005KT 21/19 A3009 RMK A01 T02060191  RH  091%=      5-min Rain = 0
KMC5 031108Z 05005KT 21/19 A3009 RMK A01 T02050191  RH  091%=      5-min Rain = 0
KMC5 031109Z 05005KT 21/19 A3009 RMK A01 T02060191  RH  091%=      5-min Rain = 0
KMC5 031110Z 05005KT 21/19 A3009 RMK A01 T02060191  RH  091%=      5-min Rain = 0
KMC5 031111Z 05005KT 21/19 A3009 RMK A01 T02060191  RH  091%=      5-min Rain = 0
KMC5 031112Z 05005KT 21/19 A3009 RMK A01 T02060191  RH  091%=      5-min Rain = 0
KMC5 031113Z 05004KT 21/19 A3009 RMK A01 T02070191  RH  091%=      5-min Rain = 0
KMC5 031114Z 05004KT 21/19 A3009 RMK A01 T02070191  RH  090%=      5-min Rain = 0
KMC5 031115Z 05004KT 21/19 A3009 RMK A01 T02070191  RH  090%=      5-min Rain = 0
KMC5 031116Z 05004KT 21/19 A3009 RMK A01 T02080191  RH  090%=      5-min Rain = 0
KMC5 031117Z 05004KT 21/19 A3009 RMK A01 T02080191  RH  090%=      5-min Rain = 0
KMC5 031118Z 04004KT 21/19 A3009 RMK A01 T02080191  RH  090%=      5-min Rain = 0
KMC5 031119Z 04004KT 21/19 A3009 RMK A01 T02080191  RH  090%=      5-min Rain = 0
KMC5 031120Z 04004KT 21/19 A3009 RMK A01 T02080191  RH  090%=      5-min Rain = 0
KMC5 031121Z 04004KT 21/19 A3009 RMK A01 T02080191  RH  090%=      5-min Rain = 0
KMC5 031122Z 03004KT 21/19 A3009 RMK A01 T02080191  RH  090%=      5-min Rain = 0
KMC5 031123Z 03004KT 21/19 A3009 RMK A01 T02080191  RH  090%=      5-min Rain = 0
KMC5 031124Z 02005KT 21/19 A3009 RMK A01 T02080191  RH  090%=      5-min Rain = 0
KMC5 031125Z 02005KT 21/19 A301 RMK A01 T02080191  RH  090%=      5-min Rain = 0
KMC5 031126Z 02005KT 21/19 A301 RMK A01 T02070191  RH  090%=      5-min Rain = 0
KMC5 031127Z 02005KT 21/19 A301 RMK A01 T02070191  RH  090%=      5-min Rain = 0
KMC5 031128Z 01003KT 21/19 A301 RMK A01 T02070191  RH  090%=      5-min Rain = 0
KMC5 031129Z 02004KT 21/19 A301 RMK A01 T02070190  RH  090%=      5-min Rain = 0
KMC5 031130Z 01005KT 21/19 A301 RMK A01 T02050189  RH  090%=      5-min Rain = 0
KMC5 031131Z 02005KT 20/19 A301 RMK A01 T02040189  RH  091%=      5-min Rain = 0
KMC5 031132Z 02004KT 20/19 A301 RMK A01 T02030189  RH  092%=      5-min Rain = 0
KMC5 031133Z 02005KT 20/19 A301 RMK A01 T02030190  RH  092%=      5-min Rain = 0
KMC5 031134Z 06003KT 20/19 A301 RMK A01 T02030190  RH  092%=      5-min Rain = 0
KMC5 031135Z 07004KT 20/19 A301 RMK A01 T02030190  RH  092%=      5-min Rain = 0
KMC5 031136Z 03005KT 20/19 A301 RMK A01 T02030190  RH  093%=      5-min Rain = 0
KMC5 031137Z 03004KT 20/19 A301 RMK A01 T02040190  RH  092%=      5-min Rain = 0
KMC5 031138Z 04004KT 21/19 A301 RMK A01 T02050191  RH  091%=      5-min Rain = 0
KMC5 031139Z 04003KT 21/19 A301 RMK A01 T02060190  RH  091%=      5-min Rain = 0
KMC5 031140Z 04004KT 21/19 A301 RMK A01 T02060190  RH  091%=      5-min Rain = 0
KMC5 031141Z 04003KT 21/19 A301 RMK A01 T02050190  RH  091%=      5-min Rain = 0
KMC5 031142Z 03004KT 21/19 A301 RMK A01 T02050190  RH  091%=      5-min Rain = 0
KMC5 031143Z 03004KT 21/19 A301 RMK A01 T02060190  RH  091%=      5-min Rain = 0
KMC5 031144Z 03004KT 21/19 A301 RMK A01 T02050190  RH  091%=      5-min Rain = 0
KMC5 031145Z 03004KT 21/19 A301 RMK A01 T02060190  RH  091%=      5-min Rain = 0
KMC5 031146Z 03004KT 21/19 A301 RMK A01 T02060190  RH  091%=      5-min Rain = 0
KMC5 031147Z 03005KT 21/19 A301 RMK A01 T02050190  RH  091%=      5-min Rain = 0
KMC5 031148Z 02005KT 21/19 A301 RMK A01 T02050189  RH  091%=      5-min Rain = 0
KMC5 031149Z 02005KT 21/19 A301 RMK A01 T02050190  RH  091%=      5-min Rain = 0
KMC5 031150Z 02005KT 20/19 A301 RMK A01 T02040189  RH  091%=      5-min Rain = 0
KMC5 031151Z 02004KT 20/19 A301 RMK A01 T02040190  RH  091%=      5-min Rain = 0
KMC5 031152Z 01005KT 20/19 A301 RMK A01 T02040189  RH  091%=      5-min Rain = 0
KMC5 031153Z 01006KT 20/19 A301 RMK A01 T02030189  RH  092%=      5-min Rain = 0
KMC5 031154Z 01007KT 20/19 A301 RMK A01 T02030189  RH  092%=      5-min Rain = 0
KMC5 031155Z 01006KT 20/19 A301 RMK A01 T02020189  RH  092%=      5-min Rain = 0
KMC5 031156Z 01006KT 20/19 A301 RMK A01 T02020189  RH  092%=      5-min Rain = 0
KMC5 031157Z 02005KT 20/19 A301 RMK A01 T02020189  RH  092%=      5-min Rain = 0
KMC5 031158Z 03005KT 20/19 A301 RMK A01 T02020189  RH  092%=      5-min Rain = 0
KMC5 031159Z 03004KT 20/19 A301 RMK A01 T02010189  RH  093%=      5-min Rain = 0
KMC5 031200Z 03004KT 20/19 A301 RMK A01 T02010189  RH  092%=      5-min Rain = 0
KMC5 031201Z 04003KT 20/19 A301 RMK A01 T02020189  RH  092%=      5-min Rain = 0
KMC5 031202Z 04003KT 20/19 A301 RMK A01 T02020189  RH  092%=      5-min Rain = 0
KMC5 031203Z 05004KT 20/19 A301 RMK A01 T02020189  RH  092%=      5-min Rain = 0
KMC5 031204Z 05004KT 20/19 A301 RMK A01 T02030189  RH  092%=      5-min Rain = 0
KMC5 031205Z 04004KT 20/19 A301 RMK A01 T02030189  RH  092%=      5-min Rain = 0
KMC5 031206Z 05004KT 20/19 A301 RMK A01 T02040189  RH  091%=      5-min Rain = 0
KMC5 031207Z 06004KT 21/19 A301 RMK A01 T02050190  RH  091%=      5-min Rain = 0
KMC5 031208Z 05003KT 21/19 A301 RMK A01 T02060190  RH  091%=      5-min Rain = 0
KMC5 031209Z 05003KT 21/19 A301 RMK A01 T02070191  RH  091%=      5-min Rain = 0
KMC5 031210Z 04004KT 21/19 A301 RMK A01 T02070191  RH  090%=      5-min Rain = 0
KMC5 031211Z 04003KT 21/19 A301 RMK A01 T02070191  RH  090%=      5-min Rain = 0
KMC5 031212Z 04003KT 21/19 A301 RMK A01 T02080191  RH  090%=      5-min Rain = 0
KMC5 031213Z 04003KT 21/19 A301 RMK A01 T02090191  RH  090%=      5-min Rain = 0
KMC5 031214Z 04004KT 21/19 A301 RMK A01 T02090192  RH  090%=      5-min Rain = 0
KMC5 031215Z 04004KT 21/19 A301 RMK A01 T02100192  RH  090%=      5-min Rain = 0
KMC5 031216Z 04004KT 21/19 A301 RMK A01 T02100193  RH  090%=      5-min Rain = 0
KMC5 031217Z 04004KT 21/19 A301 RMK A01 T02110193  RH  089%=      5-min Rain = 0
KMC5 031218Z 04004KT 21/19 A301 RMK A01 T02110193  RH  089%=      5-min Rain = 0
KMC5 031219Z 04004KT 21/19 A301 RMK A01 T02120193  RH  089%=      5-min Rain = 0
KMC5 031220Z 04004KT 21/19 A301 RMK A01 T02120194  RH  089%=      5-min Rain = 0
KMC5 031221Z 04004KT 21/19 A301 RMK A01 T02120194  RH  089%=      5-min Rain = 0
KMC5 031222Z 04004KT 21/20 A301 RMK A01 T02130195  RH  089%=      5-min Rain = 0
KMC5 031223Z 05004KT 21/20 A301 RMK A01 T02130195  RH  089%=      5-min Rain = 0
KMC5 031224Z 05004KT 21/19 A301 RMK A01 T02130194  RH  089%=      5-min Rain = 0
KMC5 031225Z 05004KT 21/19 A301 RMK A01 T02130194  RH  089%=      5-min Rain = 0
KMC5 031226Z 06004KT 21/19 A301 RMK A01 T02130194  RH  089%=      5-min Rain = 0
KMC5 031227Z 06004KT 21/20 A301 RMK A01 T02140195  RH  089%=      5-min Rain = 0
KMC5 031228Z 06004KT 21/19 A301 RMK A01 T02140194  RH  088%=      5-min Rain = 0
KMC5 031229Z 06004KT 21/19 A301 RMK A01 T02140194  RH  088%=      5-min Rain = 0
KMC5 031230Z 06004KT 22/20 A301 RMK A01 T02150195  RH  088%=      5-min Rain = 0
KMC5 031231Z 06004KT 22/20 A301 RMK A01 T02150195  RH  088%=      5-min Rain = 0
KMC5 031232Z 05004KT 22/20 A301 RMK A01 T02150195  RH  088%=      5-min Rain = 0
KMC5 031233Z 05004KT 22/20 A301 RMK A01 T02160195  RH  088%=      5-min Rain = 0
KMC5 031234Z 06004KT 22/20 A301 RMK A01 T02160195  RH  088%=      5-min Rain = 0
KMC5 031235Z 06004KT 22/20 A301 RMK A01 T02170195  RH  087%=      5-min Rain = 0
KMC5 031236Z 06004KT 22/20 A301 RMK A01 T02170195  RH  087%=      5-min Rain = 0
KMC5 031237Z 06004KT 22/20 A301 RMK A01 T02180195  RH  087%=      5-min Rain = 0
KMC5 031238Z 06004KT 22/20 A301 RMK A01 T02180196  RH  087%=      5-min Rain = 0
KMC5 031239Z 06004KT 22/20 A301 RMK A01 T02190195  RH  087%=      5-min Rain = 0
KMC5 031240Z 05004KT 22/20 A301 RMK A01 T02190195  RH  087%=      5-min Rain = 0
KMC5 031241Z 06003KT 22/20 A301 RMK A01 T02190196  RH  087%=      5-min Rain = 0
KMC5 031242Z 06003KT 22/20 A301 RMK A01 T02190196  RH  087%=      5-min Rain = 0
KMC5 031243Z 06003KT 22/20 A301 RMK A01 T02200197  RH  087%=      5-min Rain = 0
KMC5 031244Z 07003KT 22/20 A301 RMK A01 T02200196  RH  086%=      5-min Rain = 0
KMC5 031245Z 07003KT 22/20 A301 RMK A01 T02210198  RH  086%=      5-min Rain = 0
KMC5 031246Z 08004KT 22/20 A301 RMK A01 T02220198  RH  086%=      5-min Rain = 0
KMC5 031247Z 08003KT 22/20 A301 RMK A01 T02230197  RH  086%=      5-min Rain = 0
KMC5 031248Z 08003KT 22/20 A301 RMK A01 T02230197  RH  085%=      5-min Rain = 0
KMC5 031249Z 07003KT 22/20 A301 RMK A01 T02240197  RH  085%=      5-min Rain = 0
KMC5 031250Z 08003KT 22/20 A301 RMK A01 T02240199  RH  085%=      5-min Rain = 0
KMC5 031251Z 08003KT 23/20 A3011 RMK A01 T02250199  RH  085%=      5-min Rain = 0
KMC5 031252Z 08004KT 23/20 A3011 RMK A01 T02260198  RH  084%=      5-min Rain = 0
KMC5 031253Z 08004KT 23/20 A3011 RMK A01 T02260199  RH  085%=      5-min Rain = 0
KMC5 031254Z 08004KT 23/20 A3011 RMK A01 T02260199  RH  085%=      5-min Rain = 0
KMC5 031255Z 09004KT 23/20 A3011 RMK A01 T02260198  RH  084%=      5-min Rain = 0
KMC5 031256Z 09004KT 23/20 A3011 RMK A01 T02260199  RH  085%=      5-min Rain = 0
KMC5 031257Z 09004KT 23/20 A3011 RMK A01 T02270201  RH  085%=      5-min Rain = 0
KMC5 031258Z 09004KT 23/20 A3011 RMK A01 T02270199  RH  084%=      5-min Rain = 0
KMC5 031259Z 09004KT 23/20 A3011 RMK A01 T02270200  RH  085%=      5-min Rain = 0
KMC5 031300Z 09004KT 23/20 A3011 RMK A01 T02280200  RH  084%=      5-min Rain = 0
KMC5 031301Z 09004KT 23/20 A3011 RMK A01 T02280203  RH  085%=      5-min Rain = 0
KMC5 031302Z 08004KT 23/20 A3011 RMK A01 T02290200  RH  084%=      5-min Rain = 0
KMC5 031303Z 09005KT 23/20 A3011 RMK A01 T02280201  RH  085%=      5-min Rain = 0
KMC5 031304Z 08004KT 23/20 A3011 RMK A01 T02280202  RH  085%=      5-min Rain = 0
KMC5 031305Z 08005KT 23/20 A3011 RMK A01 T02290202  RH  085%=      5-min Rain = 0
KMC5 031306Z 08005KT 23/20 A3011 RMK A01 T02290200  RH  084%=      5-min Rain = 0
KMC5 031307Z 08005KT 23/20 A3011 RMK A01 T02290200  RH  084%=      5-min Rain = 0
KMC5 031308Z 08004KT 23/20 A3011 RMK A01 T02290203  RH  085%=      5-min Rain = 0
KMC5 031309Z 07005KT 23/20 A3011 RMK A01 T02300203  RH  085%=      5-min Rain = 0
KMC5 031310Z 08005KT 23/20 A3011 RMK A01 T02300201  RH  084%=      5-min Rain = 0
KMC5 031311Z 08004KT 23/20 A3011 RMK A01 T02290200  RH  083%=      5-min Rain = 0
KMC5 031312Z 09004KT 23/20 A3011 RMK A01 T02290203  RH  085%=      5-min Rain = 0
KMC5 031313Z 09005KT 23/20 A3011 RMK A01 T02300200  RH  083%=      5-min Rain = 0
KMC5 031314Z 08004KT 23/20 A3011 RMK A01 T02300201  RH  084%=      5-min Rain = 0
KMC5 031315Z 09004KT 23/20 A3011 RMK A01 T02300202  RH  084%=      5-min Rain = 0
KMC5 031316Z 11004KT 23/20 A3011 RMK A01 T02310202  RH  084%=      5-min Rain = 0
KMC5 031317Z 11005KT 23/20 A3011 RMK A01 T02310201  RH  083%=      5-min Rain = 0
KMC5 031318Z 10004KT 23/20 A3011 RMK A01 T02320202  RH  083%=      5-min Rain = 0
KMC5 031319Z 10004KT 23/20 A3011 RMK A01 T02330203  RH  084%=      5-min Rain = 0
KMC5 031320Z 10006KT 23/20 A3011 RMK A01 T02340202  RH  083%=      5-min Rain = 0
KMC5 031321Z 10007KT 23/20 A3011 RMK A01 T02340201  RH  082%=      5-min Rain = 0
KMC5 031322Z 11006KT 23/20 A3011 RMK A01 T02340201  RH  082%=      5-min Rain = 0
KMC5 031323Z 11005KT 23/20 A3011 RMK A01 T02340202  RH  082%=      5-min Rain = 0
KMC5 031324Z 10007KT 23/20 A3011 RMK A01 T02340201  RH  081%=      5-min Rain = 0
KMC5 031325Z 10006KT 23/20 A3011 RMK A01 T02340201  RH  082%=      5-min Rain = 0
KMC5 031326Z 11006KT 23/20 A3011 RMK A01 T02340203  RH  083%=      5-min Rain = 0
KMC5 031327Z 12005KT 24/20 A3011 RMK A01 T02350203  RH  082%=      5-min Rain = 0
KMC5 031328Z 12005KT 24/20 A3011 RMK A01 T02350203  RH  082%=      5-min Rain = 0
KMC5 031329Z 12006KT 24/20 A3011 RMK A01 T02360202  RH  082%=      5-min Rain = 0
KMC5 031330Z 12006KT 24/20 A3011 RMK A01 T02350203  RH  082%=      5-min Rain = 0
KMC5 031331Z 12006KT 24/20 A3011 RMK A01 T02360204  RH  082%=      5-min Rain = 0
KMC5 031332Z 12006KT 24/20 A3011 RMK A01 T02360203  RH  081%=      5-min Rain = 0
KMC5 031333Z 13006KT 24/20 A3011 RMK A01 T02370204  RH  082%=      5-min Rain = 0
KMC5 031334Z 12005KT 24/20 A3011 RMK A01 T02380204  RH  081%=      5-min Rain = 0
KMC5 031335Z 12006KT 24/20 A3011 RMK A01 T02380204  RH  081%=      5-min Rain = 0
KMC5 031336Z 12006KT 24/21 A3012 RMK A01 T02390205  RH  081%=      5-min Rain = 0
KMC5 031337Z 13006KT 24/20 A3012 RMK A01 T02400203  RH  080%=      5-min Rain = 0
KMC5 031338Z 15006KT 24/21 A3012 RMK A01 T02400205  RH  081%=      5-min Rain = 0
KMC5 031339Z 14007KT 24/20 A3012 RMK A01 T02400203  RH  080%=      5-min Rain = 0
KMC5 031340Z 12007KT 24/20 A3012 RMK A01 T02400203  RH  079%=      5-min Rain = 0
KMC5 031341Z 13006KT 24/20 A3011 RMK A01 T02410203  RH  079%=      5-min Rain = 0
KMC5 031342Z 14006KT 24/20 A3012 RMK A01 T02410203  RH  079%=      5-min Rain = 0
KMC5 031343Z 15006KT 24/20 A3012 RMK A01 T02410203  RH  079%=      5-min Rain = 0
KMC5 031344Z 13006KT 24/20 A3012 RMK A01 T02420204  RH  079%=      5-min Rain = 0
KMC5 031345Z 13006KT 24/20 A3012 RMK A01 T02430204  RH  079%=      5-min Rain = 0
KMC5 031346Z 13007KT 24/20 A3012 RMK A01 T02430204  RH  078%=      5-min Rain = 0
KMC5 031347Z 13006KT 24/20 A3012 RMK A01 T02430204  RH  079%=      5-min Rain = 0
KMC5 031348Z 13005KT 24/21 A3012 RMK A01 T02440207  RH  080%=      5-min Rain = 0
KMC5 031349Z 12007KT 25/21 A3012 RMK A01 T02460205  RH  078%=      5-min Rain = 0
KMC5 031350Z 12006KT 25/20 A3012 RMK A01 T02470204  RH  077%=      5-min Rain = 0
KMC5 031351Z 12005KT 25/21 A3012 RMK A01 T02460206  RH  078%=      5-min Rain = 0
KMC5 031352Z 12006KT 25/20 A3012 RMK A01 T02460204  RH  077%=      5-min Rain = 0
KMC5 031353Z 12007KT 25/20 A3012 RMK A01 T02470204  RH  077%=      5-min Rain = 0
KMC5 031354Z 11006KT 25/21 A3012 RMK A01 T02470205  RH  077%=      5-min Rain = 0
KMC5 031355Z 13006KT 25/21 A3012 RMK A01 T02480205  RH  077%=      5-min Rain = 0
KMC5 031356Z 14007KT 25/20 A3012 RMK A01 T02490202  RH  075%=      5-min Rain = 0
KMC5 031357Z 13005KT 25/20 A3012 RMK A01 T02490204  RH  076%=      5-min Rain = 0
KMC5 031358Z 12006KT 25/21 A3012 RMK A01 T02500205  RH  076%=      5-min Rain = 0
KMC5 031359Z 13005KT 25/21 A3012 RMK A01 T02510207  RH  076%=      5-min Rain = 0
KMC5 031400Z 13005KT 25/21 A3012 RMK A01 T02530206  RH  075%=      5-min Rain = 0
KMC5 031401Z 13004KT 25/21 A3012 RMK A01 T02540206  RH  075%=      5-min Rain = 0
KMC5 031402Z 13004KT 25/21 A3013 RMK A01 T02540206  RH  075%=      5-min Rain = 0
KMC5 031403Z 13005KT 26/21 A3013 RMK A01 T02550207  RH  075%=      5-min Rain = 0
KMC5 031404Z 13004KT 26/21 A3013 RMK A01 T02560207  RH  074%=      5-min Rain = 0
KMC5 031405Z 12005KT 26/21 A3013 RMK A01 T02560205  RH  073%=      5-min Rain = 0
KMC5 031406Z 12004KT 26/20 A3013 RMK A01 T02550204  RH  073%=      5-min Rain = 0
KMC5 031407Z 12004KT 25/21 A3013 RMK A01 T02540205  RH  074%=      5-min Rain = 0
KMC5 031408Z 12005KT 25/21 A3013 RMK A01 T02540206  RH  075%=      5-min Rain = 0
KMC5 031409Z 12005KT 26/21 A3013 RMK A01 T02550207  RH  075%=      5-min Rain = 0
KMC5 031410Z 12003KT 26/21 A3013 RMK A01 T02560207  RH  074%=      5-min Rain = 0
KMC5 031411Z 11004KT 26/21 A3013 RMK A01 T02570209  RH  075%=      5-min Rain = 0
KMC5 031412Z 12006KT 26/21 A3013 RMK A01 T02580208  RH  074%=      5-min Rain = 0
KMC5 031413Z 13005KT 26/21 A3013 RMK A01 T02580205  RH  073%=      5-min Rain = 0
KMC5 031414Z 12006KT 26/21 A3013 RMK A01 T02570208  RH  074%=      5-min Rain = 0
KMC5 031415Z 12005KT 26/21 A3013 RMK A01 T02580206  RH  073%=      5-min Rain = 0
KMC5 031416Z 12003KT 26/21 A3013 RMK A01 T02580207  RH  074%=      5-min Rain = 0
KMC5 031417Z 12005KT 26/21 A3013 RMK A01 T02580206  RH  073%=      5-min Rain = 0
KMC5 031418Z 12005KT 26/21 A3013 RMK A01 T02580207  RH  074%=      5-min Rain = 0
KMC5 031419Z 11004KT 26/21 A3013 RMK A01 T02590206  RH  073%=      5-min Rain = 0
KMC5 031420Z 11005KT 26/21 A3013 RMK A01 T02590208  RH  074%=      5-min Rain = 0
KMC5 031421Z 13006KT 26/21 A3013 RMK A01 T02590208  RH  073%=      5-min Rain = 0
KMC5 031422Z 14004KT 26/21 A3013 RMK A01 T02590206  RH  072%=      5-min Rain = 0
KMC5 031423Z 14005KT 26/21 A3013 RMK A01 T02580208  RH  074%=      5-min Rain = 0
KMC5 031424Z 14004KT 26/21 A3013 RMK A01 T02590208  RH  073%=      5-min Rain = 0
KMC5 031425Z 12005KT 26/21 A3013 RMK A01 T02610209  RH  073%=      5-min Rain = 0
KMC5 031426Z 11004KT 26/21 A3013 RMK A01 T02620208  RH  072%=      5-min Rain = 0
KMC5 031427Z 11004KT 26/21 A3013 RMK A01 T02620210  RH  073%=      5-min Rain = 0
KMC5 031428Z 14004KT 26/21 A3013 RMK A01 T02630208  RH  072%=      5-min Rain = 0
KMC5 031429Z 16005KT 26/21 A3013 RMK A01 T02630211  RH  073%=      5-min Rain = 0
KMC5 031430Z 14006KT 27/21 A3013 RMK A01 T02650208  RH  071%=      5-min Rain = 0
KMC5 031431Z 14005KT 27/21 A3013 RMK A01 T02650207  RH  071%=      5-min Rain = 0
KMC5 031432Z 13004KT 26/21 A3013 RMK A01 T02630208  RH  071%=      5-min Rain = 0
KMC5 031433Z 12005KT 26/21 A3013 RMK A01 T02630208  RH  072%=      5-min Rain = 0
KMC5 031434Z 14006KT 26/21 A3013 RMK A01 T02630209  RH  072%=      5-min Rain = 0
KMC5 031435Z 12007KT 26/21 A3013 RMK A01 T02640208  RH  071%=      5-min Rain = 0
KMC5 031436Z 10006KT 26/21 A3013 RMK A01 T02640208  RH  071%=      5-min Rain = 0
KMC5 031437Z 11008KT 26/21 A3013 RMK A01 T02640208  RH  071%=      5-min Rain = 0
KMC5 031438Z 11007KT 27/21 A3013 RMK A01 T02650209  RH  071%=      5-min Rain = 0
KMC5 031439Z 11008KT 27/21 A3013 RMK A01 T02650209  RH  071%=      5-min Rain = 0
KMC5 031440Z 12007KT 27/21 A3013 RMK A01 T02660207  RH  070%=      5-min Rain = 0
KMC5 031441Z 13007KT 27/21 A3013 RMK A01 T02650206  RH  070%=      5-min Rain = 0
KMC5 031442Z 12008KT 26/21 A3013 RMK A01 T02640209  RH  072%=      5-min Rain = 0
KMC5 031443Z 13007KT 27/21 A3013 RMK A01 T02650208  RH  071%=      5-min Rain = 0
KMC5 031444Z 13008KT 27/21 A3013 RMK A01 T02660207  RH  070%=      5-min Rain = 0
KMC5 031445Z 11007KT 27/21 A3013 RMK A01 T02650205  RH  070%=      5-min Rain = 0
KMC5 031446Z 10006KT 26/21 A3013 RMK A01 T02630206  RH  071%=      5-min Rain = 0
KMC5 031447Z 11007KT 26/21 A3013 RMK A01 T02630206  RH  071%=      5-min Rain = 0
KMC5 031448Z 12007KT 26/21 A3013 RMK A01 T02640208  RH  071%=      5-min Rain = 0
KMC5 031449Z 12008KT 27/21 A3014 RMK A01 T02660207  RH  070%=      5-min Rain = 0
KMC5 031450Z 12007KT 27/21 A3014 RMK A01 T02650206  RH  070%=      5-min Rain = 0
KMC5 031451Z 12005KT 27/21 A3014 RMK A01 T02650208  RH  071%=      5-min Rain = 0
KMC5 031452Z 10007KT 27/21 A3014 RMK A01 T02660207  RH  070%=      5-min Rain = 0
KMC5 031453Z 11006KT 27/20 A3014 RMK A01 T02660204  RH  069%=      5-min Rain = 0
KMC5 031454Z 12007KT 27/21 A3014 RMK A01 T02650205  RH  070%=      5-min Rain = 0
KMC5 031455Z 13004KT 27/21 A3014 RMK A01 T02660208  RH  071%=      5-min Rain = 0
KMC5 031456Z 14007KT 27/21 A3014 RMK A01 T02680208  RH  070%=      5-min Rain = 0
KMC5 031457Z 14006KT 27/21 A3014 RMK A01 T02690210  RH  070%=      5-min Rain = 0
KMC5 031458Z 14005KT 27/21 A3014 RMK A01 T02700208  RH  069%=      5-min Rain = 0
KMC5 031459Z 12005KT 27/21 A3014 RMK A01 T02700209  RH  069%=      5-min Rain = 0
KMC5 031500Z 11007KT 27/21 A3014 RMK A01 T02700208  RH  069%=      5-min Rain = 0
KMC5 031501Z 12007KT 27/21 A3014 RMK A01 T02700207  RH  068%=      5-min Rain = 0
KMC5 031502Z 12006KT 27/21 A3014 RMK A01 T02680206  RH  069%=      5-min Rain = 0
KMC5 031503Z 12005KT 27/20 A3014 RMK A01 T02670204  RH  068%=      5-min Rain = 0
KMC5 031504Z 11003KT 27/21 A3013 RMK A01 T02660205  RH  069%=      5-min Rain = 0
KMC5 031505Z 11004KT 27/21 A3013 RMK A01 T02660205  RH  069%=      5-min Rain = 0
KMC5 031506Z 10005KT 27/21 A3014 RMK A01 T02660205  RH  069%=      5-min Rain = 0
KMC5 031507Z 10006KT 27/21 A3014 RMK A01 T02670209  RH  071%=      5-min Rain = 0
KMC5 031508Z 10007KT 27/21 A3014 RMK A01 T02680207  RH  069%=      5-min Rain = 0
KMC5 031509Z 11006KT 27/21 A3014 RMK A01 T02690210  RH  070%=      5-min Rain = 0
KMC5 031510Z 11005KT 27/21 A3014 RMK A01 T02700209  RH  069%=      5-min Rain = 0
KMC5 031511Z 12007KT 27/21 A3014 RMK A01 T02700205  RH  068%=      5-min Rain = 0
KMC5 031512Z 11006KT 27/21 A3014 RMK A01 T02690207  RH  069%=      5-min Rain = 0
KMC5 031513Z 13007KT 27/21 A3014 RMK A01 T02710206  RH  068%=      5-min Rain = 0
KMC5 031514Z 12008KT 27/21 A3014 RMK A01 T02710207  RH  068%=      5-min Rain = 0
KMC5 031515Z 13008KT 27/21 A3014 RMK A01 T02710205  RH  067%=      5-min Rain = 0
KMC5 031516Z 14007KT 27/20 A3014 RMK A01 T02700203  RH  067%=      5-min Rain = 0
KMC5 031517Z 15005KT 27/20 A3014 RMK A01 T02700203  RH  067%=      5-min Rain = 0
KMC5 031518Z 13007KT 27/21 A3014 RMK A01 T02710210  RH  069%=      5-min Rain = 0
KMC5 031519Z 13007KT 27/21 A3014 RMK A01 T02730207  RH  067%=      5-min Rain = 0
KMC5 031520Z 11006KT 27/21 A3013 RMK A01 T02730207  RH  067%=      5-min Rain = 0
KMC5 031521Z 11008KT 27/21 A3013 RMK A01 T02720208  RH  068%=      5-min Rain = 0
KMC5 031522Z 10007KT 27/21 A3013 RMK A01 T02730209  RH  068%=      5-min Rain = 0
KMC5 031523Z 10007KT 27/21 A3013 RMK A01 T02730206  RH  067%=      5-min Rain = 0
KMC5 031524Z 10005KT 27/21 A3013 RMK A01 T02730207  RH  067%=      5-min Rain = 0
KMC5 031525Z 10005KT 27/21 A3013 RMK A01 T02720208  RH  068%=      5-min Rain = 0
KMC5 031526Z 10004KT 27/21 A3013 RMK A01 T02740209  RH  068%=      5-min Rain = 0
KMC5 031527Z 14006KT 28/21 A3013 RMK A01 T02750210  RH  068%=      5-min Rain = 0
KMC5 031528Z 16004KT 28/21 A3013 RMK A01 T02750208  RH  067%=      5-min Rain = 0
KMC5 031529Z 15006KT 28/21 A3013 RMK A01 T02750211  RH  068%=      5-min Rain = 0
KMC5 031530Z 13007KT 28/21 A3013 RMK A01 T02750208  RH  067%=      5-min Rain = 0
KMC5 031531Z 14006KT 28/21 A3013 RMK A01 T02750208  RH  067%=      5-min Rain = 0
KMC5 031532Z 14006KT 28/21 A3013 RMK A01 T02750206  RH  066%=      5-min Rain = 0
KMC5 031533Z 16006KT 28/21 A3013 RMK A01 T02750207  RH  066%=      5-min Rain = 0
KMC5 031534Z 14006KT 28/21 A3013 RMK A01 T02750207  RH  067%=      5-min Rain = 0
KMC5 031535Z 13007KT 28/21 A3013 RMK A01 T02750205  RH  065%=      5-min Rain = 0
KMC5 031536Z 12008KT 28/20 A3013 RMK A01 T02750202  RH  064%=      5-min Rain = 0
KMC5 031537Z 12006KT 28/20 A3014 RMK A01 T02750200  RH  064%=      5-min Rain = 0
KMC5 031538Z 13006KT 27/20 A3014 RMK A01 T02740204  RH  066%=      5-min Rain = 0
KMC5 031539Z 14006KT 27/21 A3014 RMK A01 T02740210  RH  068%=      5-min Rain = 0
KMC5 031540Z 13006KT 28/21 A3013 RMK A01 T02760211  RH  067%=      5-min Rain = 0
KMC5 031541Z 12007KT 28/21 A3014 RMK A01 T02780208  RH  066%=      5-min Rain = 0
KMC5 031542Z 11006KT 28/21 A3013 RMK A01 T02780206  RH  065%=      5-min Rain = 0
KMC5 031543Z 12006KT 28/20 A3013 RMK A01 T02770204  RH  064%=      5-min Rain = 0
KMC5 031544Z 14007KT 28/21 A3013 RMK A01 T02770207  RH  066%=      5-min Rain = 0
KMC5 031545Z 15006KT 28/21 A3013 RMK A01 T02790207  RH  065%=      5-min Rain = 0
KMC5 031546Z 16005KT 28/20 A3013 RMK A01 T02780203  RH  064%=      5-min Rain = 0
KMC5 031547Z 14006KT 28/21 A3013 RMK A01 T02770207  RH  066%=      5-min Rain = 0
KMC5 031548Z 13008KT 28/20 A3013 RMK A01 T02780204  RH  064%=      5-min Rain = 0
KMC5 031549Z 13006KT 28/20 A3013 RMK A01 T02780203  RH  064%=      5-min Rain = 0
KMC5 031550Z 13007KT 28/20 A3013 RMK A01 T02790202  RH  063%=      5-min Rain = 0
KMC5 031551Z 13005KT 28/20 A3013 RMK A01 T02790200  RH  062%=      5-min Rain = 0
KMC5 031552Z 13003KT 28/20 A3013 RMK A01 T02790200  RH  062%=      5-min Rain = 0
KMC5 031553Z 13008KT 28/21 A3013 RMK A01 T02790207  RH  065%=      5-min Rain = 0
KMC5 031554Z 14007KT 28/21 A3013 RMK A01 T02800205  RH  064%=      5-min Rain = 0
KMC5 031555Z 14007KT 28/21 A3013 RMK A01 T02800207  RH  064%=      5-min Rain = 0
KMC5 031556Z 12007KT 28/21 A3013 RMK A01 T02800205  RH  064%=      5-min Rain = 0
KMC5 031557Z 12009KT 28/21 A3013 RMK A01 T02800208  RH  065%=      5-min Rain = 0
KMC5 031558Z 12008KT 28/21 A3013 RMK A01 T02820206  RH  063%=      5-min Rain = 0
KMC5 031559Z 13008KT 28/20 A3014 RMK A01 T02820204  RH  063%=      5-min Rain = 0
KMC5 031600Z 13007KT 28/20 A3014 RMK A01 T02810203  RH  062%=      5-min Rain = 0
KMC5 031601Z 14005KT 28/20 A3014 RMK A01 T02810200  RH  061%=      5-min Rain = 0
KMC5 031602Z 15007KT 28/20 A3014 RMK A01 T02800200  RH  062%=      5-min Rain = 0
KMC5 031603Z 14004KT 28/20 A3014 RMK A01 T02810199  RH  061%=      5-min Rain = 0
KMC5 031604Z 14004KT 28/20 A3014 RMK A01 T02810202  RH  062%=      5-min Rain = 0
KMC5 031605Z 14009KT 28/21 A3014 RMK A01 T02830205  RH  063%=      5-min Rain = 0
KMC5 031606Z 15007KT 28/20 A3014 RMK A01 T02830202  RH  061%=      5-min Rain = 0
KMC5 031607Z 14007KT 28/21 A3014 RMK A01 T02830206  RH  063%=      5-min Rain = 0
KMC5 031608Z 14008KT 28/20 A3014 RMK A01 T02840201  RH  061%=      5-min Rain = 0
KMC5 031609Z 12008KT 28/20 A3014 RMK A01 T02840200  RH  060%=      5-min Rain = 0
KMC5 031610Z 11007KT 28/20 A3014 RMK A01 T02830201  RH  061%=      5-min Rain = 0
KMC5 031611Z 11007KT 28/20 A3014 RMK A01 T02830201  RH  061%=      5-min Rain = 0
KMC5 031612Z 11007KT 28/20 A3014 RMK A01 T02830202  RH  062%=      5-min Rain = 0
KMC5 031613Z 12006KT 28/20 A3014 RMK A01 T02830201  RH  061%=      5-min Rain = 0
KMC5 031614Z 11005KT 28/20 A3013 RMK A01 T02830202  RH  061%=      5-min Rain = 0
KMC5 031615Z 12004KT 29/20 A3013 RMK A01 T02850199  RH  060%=      5-min Rain = 0
KMC5 031616Z 12004KT 29/20 A3013 RMK A01 T02860198  RH  059%=      5-min Rain = 0
KMC5 031617Z 13004KT 29/20 A3013 RMK A01 T02860198  RH  059%=      5-min Rain = 0
KMC5 031618Z 16005KT 29/20 A3013 RMK A01 T02860200  RH  059%=      5-min Rain = 0
KMC5 031619Z 17004KT 29/19 A3014 RMK A01 T02880194  RH  057%=      5-min Rain = 0
KMC5 031620Z 14005KT 29/19 A3014 RMK A01 T02880193  RH  057%=      5-min Rain = 0
KMC5 031621Z 13005KT 29/19 A3014 RMK A01 T02870193  RH  057%=      5-min Rain = 0
KMC5 031622Z 11004KT 29/19 A3014 RMK A01 T02870194  RH  057%=      5-min Rain = 0
KMC5 031623Z 12006KT 29/20 A3013 RMK A01 T02860195  RH  058%=      5-min Rain = 0
KMC5 031624Z 12007KT 29/20 A3013 RMK A01 T02870198  RH  059%=      5-min Rain = 0
KMC5 031625Z 12006KT 29/20 A3013 RMK A01 T02870199  RH  059%=      5-min Rain = 0
KMC5 031626Z 14006KT 29/20 A3013 RMK A01 T02860200  RH  060%=      5-min Rain = 0
KMC5 031627Z 13005KT 29/20 A3013 RMK A01 T02860199  RH  059%=      5-min Rain = 0
KMC5 031628Z 13006KT 29/20 A3013 RMK A01 T02860200  RH  059%=      5-min Rain = 0
KMC5 031629Z 16005KT 29/20 A3013 RMK A01 T02880196  RH  058%=      5-min Rain = 0
KMC5 031630Z 18006KT 29/19 A3013 RMK A01 T02890189  RH  055%=      5-min Rain = 0
KMC5 031631Z 17006KT 29/19 A3013 RMK A01 T02890191  RH  055%=      5-min Rain = 0
KMC5 031632Z 13006KT 29/18 A3013 RMK A01 T02900182  RH  052%=      5-min Rain = 0
KMC5 031633Z 14007KT 29/19 A3013 RMK A01 T02900189  RH  054%=      5-min Rain = 0
KMC5 031634Z 15007KT 29/19 A3013 RMK A01 T02910193  RH  056%=      5-min Rain = 0
KMC5 031635Z 17008KT 29/20 A3013 RMK A01 T02920199  RH  057%=      5-min Rain = 0
KMC5 031636Z 18006KT 29/20 A3013 RMK A01 T02940196  RH  056%=      5-min Rain = 0
KMC5 031637Z 19006KT 29/20 A3013 RMK A01 T02920201  RH  058%=      5-min Rain = 0
KMC5 031638Z 16005KT 29/20 A3013 RMK A01 T02910197  RH  057%=      5-min Rain = 0
KMC5 031639Z 15007KT 29/20 A3013 RMK A01 T02900198  RH  058%=      5-min Rain = 0
KMC5 031640Z 15007KT 29/20 A3013 RMK A01 T02910195  RH  056%=      5-min Rain = 0
KMC5 031641Z 14007KT 29/20 A3013 RMK A01 T02910195  RH  056%=      5-min Rain = 0
KMC5 031642Z 15007KT 29/19 A3013 RMK A01 T02920192  RH  055%=      5-min Rain = 0
KMC5 031643Z 21007KT 29/19 A3013 RMK A01 T02920191  RH  054%=      5-min Rain = 0
KMC5 031644Z 22006KT 29/19 A3013 RMK A01 T02930185  RH  052%=      5-min Rain = 0
KMC5 031645Z 21005KT 29/18 A3013 RMK A01 T02930181  RH  051%=      5-min Rain = 0
KMC5 031646Z 18006KT 29/19 A3013 RMK A01 T02920185  RH  052%=      5-min Rain = 0
KMC5 031647Z 14004KT 29/18 A3013 RMK A01 T02920183  RH  052%=      5-min Rain = 0
KMC5 031648Z 18004KT 29/19 A3013 RMK A01 T02910188  RH  054%=      5-min Rain = 0
KMC5 031649Z 16008KT 29/19 A3013 RMK A01 T02940191  RH  054%=      5-min Rain = 0
KMC5 031650Z 17008KT 30/18 A3013 RMK A01 T02960183  RH  051%=      5-min Rain = 0
KMC5 031651Z 17006KT 30/18 A3013 RMK A01 T02950183  RH  051%=      5-min Rain = 0
KMC5 031652Z 20003KT 29/18 A3013 RMK A01 T02940180  RH  050%=      5-min Rain = 0
KMC5 031653Z 16002KT 29/19 A3013 RMK A01 T02930185  RH  052%=      5-min Rain = 0
KMC5 031654Z 17006KT 29/18 A3013 RMK A01 T02940184  RH  052%=      5-min Rain = 0
KMC5 031655Z 18004KT 30/18 A3013 RMK A01 T02950183  RH  051%=      5-min Rain = 0
KMC5 031656Z 18007KT 30/19 A3013 RMK A01 T02960187  RH  052%=      5-min Rain = 0
KMC5 031657Z 16006KT 30/19 A3013 RMK A01 T02960185  RH  051%=      5-min Rain = 0
KMC5 031658Z 13006KT 30/19 A3013 RMK A01 T02960185  RH  051%=      5-min Rain = 0
KMC5 031659Z 14004KT 30/18 A3013 RMK A01 T02960184  RH  051%=      5-min Rain = 0
KMC5 031700Z 16005KT 30/19 A3013 RMK A01 T02960189  RH  053%=      5-min Rain = 0
KMC5 031701Z 17006KT 30/19 A3013 RMK A01 T02960192  RH  053%=      5-min Rain = 0
KMC5 031702Z 19008KT 30/19 A3013 RMK A01 T02970190  RH  053%=      5-min Rain = 0
KMC5 031703Z 19008KT 30/19 A3013 RMK A01 T02990187  RH  051%=      5-min Rain = 0
KMC5 031704Z 19007KT 30/18 A3013 RMK A01 T02970184  RH  051%=      5-min Rain = 0
KMC5 031705Z 19006KT 30/18 A3013 RMK A01 T02960184  RH  051%=      5-min Rain = 0
KMC5 031706Z 19005KT 30/19 A3013 RMK A01 T02960185  RH  051%=      5-min Rain = 0
KMC5 031707Z 16006KT 30/20 A3013 RMK A01 T02970195  RH  054%=      5-min Rain = 0
KMC5 031708Z 14005KT 30/20 A3013 RMK A01 T03020195  RH  053%=      5-min Rain = 0
KMC5 031709Z 13005KT 30/19 A3013 RMK A01 T03030191  RH  051%=      5-min Rain = 0
KMC5 031710Z 16008KT 30/19 A3013 RMK A01 T03020189  RH  051%=      5-min Rain = 0
KMC5 031711Z 15008KT 30/19 A3013 RMK A01 T03010187  RH  051%=      5-min Rain = 0
KMC5 031712Z 16008KT 30/19 A3013 RMK A01 T03010186  RH  050%=      5-min Rain = 0
KMC5 031713Z 17004KT 30/18 A3013 RMK A01 T03000181  RH  049%=      5-min Rain = 0
KMC5 031714Z 14004KT 30/18 A3013 RMK A01 T02990184  RH  050%=      5-min Rain = 0
KMC5 031715Z 16006KT 30/19 A3013 RMK A01 T02990185  RH  050%=      5-min Rain = 0
KMC5 031716Z 16006KT 30/18 A3013 RMK A01 T03010180  RH  048%=      5-min Rain = 0
KMC5 031717Z 16007KT 30/18 A3013 RMK A01 T03020179  RH  048%=      5-min Rain = 0
KMC5 031718Z 17008KT 30/18 A3013 RMK A01 T03020183  RH  049%=      5-min Rain = 0
KMC5 031719Z 19006KT 30/19 A3013 RMK A01 T03020188  RH  051%=      5-min Rain = 0
KMC5 031720Z 21005KT 30/18 A3013 RMK A01 T03020184  RH  049%=      5-min Rain = 0
KMC5 031721Z 22005KT 30/18 A3013 RMK A01 T03030180  RH  048%=      5-min Rain = 0
KMC5 031722Z 24007KT 30/18 A3013 RMK A01 T03040183  RH  048%=      5-min Rain = 0
KMC5 031723Z 23005KT 30/17 A3013 RMK A01 T03040174  RH  046%=      5-min Rain = 0
KMC5 031724Z 23005KT 30/18 A3013 RMK A01 T03030181  RH  048%=      5-min Rain = 0
KMC5 031725Z 22007KT 30/18 A3013 RMK A01 T03040183  RH  048%=      5-min Rain = 0
KMC5 031726Z 19007KT 31/18 A3013 RMK A01 T03060183  RH  048%=      5-min Rain = 0
KMC5 031727Z 21006KT 31/18 A3013 RMK A01 T03070180  RH  047%=      5-min Rain = 0
KMC5 031728Z 21008KT 31/18 A3013 RMK A01 T03060180  RH  047%=      5-min Rain = 0
KMC5 031729Z 21007KT 31/18 A3013 RMK A01 T03050179  RH  047%=      5-min Rain = 0
KMC5 031730Z 22006KT 30/18 A3013 RMK A01 T03030180  RH  048%=      5-min Rain = 0
KMC5 031731Z 21004KT 30/18 A3013 RMK A01 T03040179  RH  047%=      5-min Rain = 0
KMC5 031732Z 21004KT 30/18 A3013 RMK A01 T03040176  RH  046%=      5-min Rain = 0
KMC5 031733Z 19008KT 31/18 A3013 RMK A01 T03050184  RH  049%=      5-min Rain = 0
KMC5 031734Z 19009KT 31/19 A3013 RMK A01 T03080185  RH  048%=      5-min Rain = 0
KMC5 031735Z 21008KT 31/18 A3013 RMK A01 T03110180  RH  046%=      5-min Rain = 0
KMC5 031736Z 20007KT 31/18 A3013 RMK A01 T03090178  RH  045%=      5-min Rain = 0
KMC5 031737Z 21008KT 31/18 A3013 RMK A01 T03070179  RH  046%=      5-min Rain = 0
KMC5 031738Z 22010KT 31/18 A3013 RMK A01 T03070179  RH  046%=      5-min Rain = 0
KMC5 031739Z 21009KT 31/18 A3013 RMK A01 T03080175  RH  045%=      5-min Rain = 0
KMC5 031740Z 22007KT 31/18 A3013 RMK A01 T03080175  RH  045%=      5-min Rain = 0
KMC5 031741Z 22007KT 31/17 A3013 RMK A01 T03080172  RH  044%=      5-min Rain = 0
KMC5 031742Z 23005KT 31/17 A3013 RMK A01 T03070170  RH  044%=      5-min Rain = 0
KMC5 031743Z 21005KT 31/18 A3013 RMK A01 T03070177  RH  046%=      5-min Rain = 0
KMC5 031744Z 26004KT 31/18 A3013 RMK A01 T03070180  RH  047%=      5-min Rain = 0
KMC5 031745Z 25004KT 31/18 A3013 RMK A01 T03070178  RH  046%=      5-min Rain = 0
KMC5 031746Z 22004G9KT 31/18 A3013 RMK A01 T03070182  RH  047%=      5-min Rain = 0
KMC5 031747Z 20008KT 31/18 A3013 RMK A01 T03070184  RH  048%=      5-min Rain = 0
KMC5 031748Z 21008KT 31/18 A3013 RMK A01 T03090182  RH  047%=      5-min Rain = 0
KMC5 031749Z 22005KT 31/18 A3013 RMK A01 T03090176  RH  045%=      5-min Rain = 0
KMC5 031750Z 21008KT 31/18 A3013 RMK A01 T03080183  RH  047%=      5-min Rain = 0
KMC5 031751Z 20009KT 31/18 A3013 RMK A01 T03090181  RH  046%=      5-min Rain = 0
KMC5 031752Z 21008KT 31/18 A3013 RMK A01 T03080180  RH  046%=      5-min Rain = 0
KMC5 031753Z 20006KT 31/18 A3013 RMK A01 T03080178  RH  046%=      5-min Rain = 0
KMC5 031754Z 18006KT 31/18 A3013 RMK A01 T03070175  RH  045%=      5-min Rain = 0
KMC5 031755Z 18005KT 31/17 A3013 RMK A01 T03050172  RH  045%=      5-min Rain = 0
KMC5 031756Z 21002KT 30/17 A3013 RMK A01 T03030174  RH  046%=      5-min Rain = 0
KMC5 031757Z 23002KT 30/18 A3013 RMK A01 T03040175  RH  046%=      5-min Rain = 0
KMC5 031758Z 19005KT 30/18 A3013 RMK A01 T03040181  RH  048%=      5-min Rain = 0
KMC5 031759Z 19007KT 31/18 A3013 RMK A01 T03060183  RH  048%=      5-min Rain = 0
KMC5 031800Z 21007KT 31/18 A3013 RMK A01 T03090181  RH  046%=      5-min Rain = 0
KMC5 031801Z 21004KT 31/18 A3013 RMK A01 T03090178  RH  046%=      5-min Rain = 0
KMC5 031802Z 21004KT 31/18 A3013 RMK A01 T03080181  RH  046%=      5-min Rain = 0
KMC5 031803Z 21003KT 31/18 A3013 RMK A01 T03080179  RH  046%=      5-min Rain = 0
KMC5 031804Z 19004KT 31/18 A3013 RMK A01 T03080179  RH  046%=      5-min Rain = 0
KMC5 031805Z 17002KT 31/18 A3013 RMK A01 T03080180  RH  046%=      5-min Rain = 0
KMC5 031806Z 20005KT 31/18 A3013 RMK A01 T03090178  RH  046%=      5-min Rain = 0
KMC5 031807Z 24003KT 31/18 A3013 RMK A01 T03100176  RH  045%=      5-min Rain = 0
KMC5 031808Z 23003KT 31/18 A3013 RMK A01 T03090175  RH  045%=      5-min Rain = 0
KMC5 031809Z 24002KT 31/18 A3013 RMK A01 T03080175  RH  045%=      5-min Rain = 0
KMC5 031810Z 28001KT 31/18 A3013 RMK A01 T03070176  RH  046%=      5-min Rain = 0
KMC5 031811Z 16002KT 31/18 A3013 RMK A01 T03060176  RH  046%=      5-min Rain = 0
KMC5 031812Z 15004KT 31/19 A3013 RMK A01 T03070186  RH  048%=      5-min Rain = 0
KMC5 031813Z 15004KT 31/19 A3013 RMK A01 T03110185  RH  047%=      5-min Rain = 0
KMC5 031814Z 19005KT 31/18 A3013 RMK A01 T03120184  RH  047%=      5-min Rain = 0
KMC5 031815Z 21004KT 31/18 A3013 RMK A01 T03120182  RH  046%=      5-min Rain = 0
KMC5 031816Z 22005KT 31/18 A3013 RMK A01 T03110182  RH  046%=      5-min Rain = 0
KMC5 031817Z 21006KT 31/18 A3013 RMK A01 T03110184  RH  047%=      5-min Rain = 0
KMC5 031818Z 19009KT 31/18 A3013 RMK A01 T03120184  RH  047%=      5-min Rain = 0
KMC5 031819Z 17007KT 31/18 A3013 RMK A01 T03130183  RH  046%=      5-min Rain = 0
KMC5 031820Z 18006KT 31/18 A3013 RMK A01 T03130176  RH  044%=      5-min Rain = 0
KMC5 031821Z 17008KT 31/18 A3013 RMK A01 T03130177  RH  044%=      5-min Rain = 0
KMC5 031822Z 16007KT 31/17 A3013 RMK A01 T03130173  RH  043%=      5-min Rain = 0
KMC5 031823Z 13005KT 31/17 A3013 RMK A01 T03120174  RH  044%=      5-min Rain = 0
KMC5 031824Z 15004KT 31/18 A3013 RMK A01 T03110179  RH  045%=      5-min Rain = 0
KMC5 031825Z 17007KT 32/18 A3013 RMK A01 T03150176  RH  044%=      5-min Rain = 0
KMC5 031826Z 18005KT 32/16 A3013 RMK A01 T03150161  RH  039%=      5-min Rain = 0
KMC5 031827Z 19004KT 31/16 A3013 RMK A01 T03120157  RH  039%=      5-min Rain = 0
KMC5 031828Z 23001KT 31/16 A3013 RMK A01 T03120156  RH  039%=      5-min Rain = 0
KMC5 031829Z 21003KT 31/17 A3012 RMK A01 T03120171  RH  043%=      5-min Rain = 0
KMC5 031830Z 19003KT 31/16 A3012 RMK A01 T03140159  RH  039%=      5-min Rain = 0
KMC5 031831Z 15004KT 31/16 A3012 RMK A01 T03130157  RH  039%=      5-min Rain = 0
KMC5 031832Z 16003KT 31/16 A3012 RMK A01 T03120155  RH  039%=      5-min Rain = 0
KMC5 031833Z 21005KT 31/16 A3012 RMK A01 T03130160  RH  040%=      5-min Rain = 0
KMC5 031834Z 21004KT 31/16 A3012 RMK A01 T03140157  RH  039%=      5-min Rain = 0
KMC5 031835Z 23003KT 32/16 A3012 RMK A01 T03150157  RH  039%=      5-min Rain = 0
KMC5 031836Z 20002KT 32/16 A3012 RMK A01 T03150155  RH  038%=      5-min Rain = 0
KMC5 031837Z 17001KT 31/15 A3012 RMK A01 T03140149  RH  037%=      5-min Rain = 0
KMC5 031838Z 23002KT 31/16 A3012 RMK A01 T03140155  RH  038%=      5-min Rain = 0
KMC5 031839Z 27004KT 32/16 A3012 RMK A01 T03150155  RH  038%=      5-min Rain = 0
KMC5 031840Z 27004KT 32/15 A3012 RMK A01 T03160153  RH  037%=      5-min Rain = 0
KMC5 031841Z 27002KT 32/17 A3012 RMK A01 T03160167  RH  041%=      5-min Rain = 0
KMC5 031842Z 20004KT 32/18 A3012 RMK A01 T03160175  RH  043%=      5-min Rain = 0
KMC5 031843Z 17003KT 32/18 A3012 RMK A01 T03160182  RH  045%=      5-min Rain = 0
KMC5 031844Z 16001KT 32/18 A3012 RMK A01 T03160175  RH  043%=      5-min Rain = 0
KMC5 031845Z 20001KT 32/18 A3012 RMK A01 T03160177  RH  043%=      5-min Rain = 0
KMC5 031846Z 20004KT 32/19 A3012 RMK A01 T03170189  RH  047%=      5-min Rain = 0
KMC5 031847Z 20005KT 32/19 A3012 RMK A01 T03220189  RH  045%=      5-min Rain = 0
KMC5 031848Z 15002KT 32/18 A3012 RMK A01 T03220182  RH  043%=      5-min Rain = 0
KMC5 031849Z 18000KT 32/19 A3012 RMK A01 T03210191  RH  046%=      5-min Rain = 0
KMC5 031850Z 22002KT 32/19 A3012 RMK A01 T03210189  RH  045%=      5-min Rain = 0
KMC5 031851Z 22003KT 32/19 A3012 RMK A01 T03220186  RH  044%=      5-min Rain = 0
KMC5 031852Z 24005KT 32/19 A3012 RMK A01 T03220189  RH  045%=      5-min Rain = 0
KMC5 031853Z 25003KT 32/19 A3012 RMK A01 T03220185  RH  044%=      5-min Rain = 0
KMC5 031854Z 20006KT 32/19 A3012 RMK A01 T03210187  RH  045%=      5-min Rain = 0
KMC5 031855Z 21005KT 32/19 A3012 RMK A01 T03210187  RH  045%=      5-min Rain = 0
KMC5 031856Z 18005KT 32/18 A3012 RMK A01 T03220184  RH  044%=      5-min Rain = 0
KMC5 031857Z 20005KT 32/18 A3012 RMK A01 T03230183  RH  044%=      5-min Rain = 0
KMC5 031858Z 19004KT 32/18 A3012 RMK A01 T03230181  RH  043%=      5-min Rain = 0
KMC5 031859Z 19004KT 32/18 A3012 RMK A01 T03230181  RH  043%=      5-min Rain = 0
KMC5 031900Z 19004KT 32/18 A3012 RMK A01 T03220179  RH  042%=      5-min Rain = 0
KMC5 031901Z 21004KT 32/18 A3012 RMK A01 T03200181  RH  043%=      5-min Rain = 0
KMC5 031902Z 23004KT 32/18 A3012 RMK A01 T03190181  RH  044%=      5-min Rain = 0
KMC5 031903Z 23005KT 32/18 A3012 RMK A01 T03180179  RH  044%=      5-min Rain = 0
KMC5 031904Z 15006KT 32/18 A3011 RMK A01 T03180180  RH  044%=      5-min Rain = 0
KMC5 031905Z 11005KT 32/18 A3011 RMK A01 T03190179  RH  043%=      5-min Rain = 0
KMC5 031906Z 10003KT 32/18 A3011 RMK A01 T03200177  RH  043%=      5-min Rain = 0
KMC5 031907Z 14002KT 32/18 A3011 RMK A01 T03210177  RH  042%=      5-min Rain = 0
KMC5 031908Z 20005KT 32/19 A3011 RMK A01 T03220185  RH  044%=      5-min Rain = 0
KMC5 031909Z 21006KT 32/18 A3011 RMK A01 T03220184  RH  044%=      5-min Rain = 0
KMC5 031910Z 20005KT 32/19 A3011 RMK A01 T03200185  RH  045%=      5-min Rain = 0
KMC5 031911Z 20006KT 32/18 A3011 RMK A01 T03190184  RH  045%=      5-min Rain = 0
KMC5 031912Z 18004KT 32/19 A3011 RMK A01 T03190186  RH  045%=      5-min Rain = 0
KMC5 031913Z 20003KT 32/18 A3011 RMK A01 T03210183  RH  044%=      5-min Rain = 0
KMC5 031914Z 21003KT 32/18 A3011 RMK A01 T03220181  RH  043%=      5-min Rain = 0
KMC5 031915Z 20002KT 32/18 A3011 RMK A01 T03220181  RH  043%=      5-min Rain = 0
KMC5 031916Z 16003KT 32/18 A3011 RMK A01 T03220183  RH  044%=      5-min Rain = 0
KMC5 031917Z 17008KT 32/18 A3011 RMK A01 T03220176  RH  042%=      5-min Rain = 0
KMC5 031918Z 18007KT 33/18 A3011 RMK A01 T03250175  RH  041%=      5-min Rain = 0
KMC5 031919Z 20007KT 32/18 A3011 RMK A01 T03230177  RH  042%=      5-min Rain = 0
KMC5 031920Z 21005KT 32/17 A3011 RMK A01 T03220173  RH  041%=      5-min Rain = 0
KMC5 031921Z 22003KT 32/17 A3011 RMK A01 T03200170  RH  041%=      5-min Rain = 0
KMC5 031922Z 25001KT 32/17 A3011 RMK A01 T03200166  RH  040%=      5-min Rain = 0
KMC5 031923Z 24001KT 32/17 A3011 RMK A01 T03220166  RH  039%=      5-min Rain = 0
KMC5 031924Z 11003KT 33/17 A3011 RMK A01 T03250166  RH  039%=      5-min Rain = 0
KMC5 031925Z 10004KT 33/16 A3011 RMK A01 T03270159  RH  036%=      5-min Rain = 0
KMC5 031926Z 12002KT 33/16 A3011 RMK A01 T03270160  RH  037%=      5-min Rain = 0
KMC5 031927Z 12002KT 33/16 A3011 RMK A01 T03270159  RH  036%=      5-min Rain = 0
KMC5 031928Z 12005KT 33/16 A3011 RMK A01 T03280162  RH  037%=      5-min Rain = 0
KMC5 031929Z 11004KT 33/17 A3011 RMK A01 T03280166  RH  038%=      5-min Rain = 0
KMC5 031930Z 11004KT 33/16 A3011 RMK A01 T03280162  RH  037%=      5-min Rain = 0
KMC5 031931Z 14007KT 33/17 A3011 RMK A01 T03290170  RH  039%=      5-min Rain = 0
KMC5 031932Z 17007KT 33/16 A3011 RMK A01 T03320156  RH  035%=      5-min Rain = 0
KMC5 031933Z 17009KT 33/16 A3011 RMK A01 T03300164  RH  037%=      5-min Rain = 0
KMC5 031934Z 17007KT 33/16 A3011 RMK A01 T03280163  RH  037%=      5-min Rain = 0
KMC5 031935Z 15004KT 33/16 A3011 RMK A01 T03280163  RH  037%=      5-min Rain = 0
KMC5 031936Z 17004KT 33/17 A3011 RMK A01 T03270166  RH  038%=      5-min Rain = 0
KMC5 031937Z 18006KT 33/16 A301 RMK A01 T03280162  RH  037%=      5-min Rain = 0
KMC5 031938Z 18004KT 33/16 A301 RMK A01 T03280160  RH  037%=      5-min Rain = 0
KMC5 031939Z 14003KT 33/16 A301 RMK A01 T03280157  RH  036%=      5-min Rain = 0
KMC5 031940Z 16002KT 33/16 A301 RMK A01 T03280155  RH  035%=      5-min Rain = 0
KMC5 031941Z 13007KT 33/17 A301 RMK A01 T03300165  RH  037%=      5-min Rain = 0
KMC5 031942Z 14007KT 33/17 A3011 RMK A01 T03310165  RH  037%=      5-min Rain = 0
KMC5 031943Z 18004KT 33/17 A301 RMK A01 T03300165  RH  037%=      5-min Rain = 0
KMC5 031944Z 18002KT 33/16 A301 RMK A01 T03280161  RH  037%=      5-min Rain = 0
KMC5 031945Z 17003KT 33/16 A301 RMK A01 T03260164  RH  038%=      5-min Rain = 0
KMC5 031946Z 16006KT 33/17 A301 RMK A01 T03270165  RH  038%=      5-min Rain = 0
KMC5 031947Z 15006KT 33/17 A301 RMK A01 T03280171  RH  039%=      5-min Rain = 0
KMC5 031948Z 14007KT 33/17 A301 RMK A01 T03310171  RH  038%=      5-min Rain = 0
KMC5 031949Z 15008KT 33/17 A301 RMK A01 T03330168  RH  037%=      5-min Rain = 0
KMC5 031950Z 13007KT 33/17 A301 RMK A01 T03320169  RH  038%=      5-min Rain = 0
KMC5 031951Z 13005KT 33/17 A301 RMK A01 T03310170  RH  038%=      5-min Rain = 0
KMC5 031952Z 13004KT 33/17 A301 RMK A01 T03310168  RH  038%=      5-min Rain = 0
KMC5 031953Z 15004KT 33/17 A301 RMK A01 T03300166  RH  038%=      5-min Rain = 0
KMC5 031954Z 18006KT 33/17 A301 RMK A01 T03280169  RH  039%=      5-min Rain = 0
KMC5 031955Z 16005KT 33/17 A301 RMK A01 T03260169  RH  039%=      5-min Rain = 0
KMC5 031956Z 19003KT 33/17 A301 RMK A01 T03260170  RH  039%=      5-min Rain = 0
KMC5 031957Z 19010KT 33/17 A301 RMK A01 T03280172  RH  040%=      5-min Rain = 0
KMC5 031958Z 19007KT 33/16 A301 RMK A01 T03300163  RH  037%=      5-min Rain = 0
KMC5 031959Z 17004KT 33/17 A301 RMK A01 T03270169  RH  039%=      5-min Rain = 0
KMC5 032000Z 16004KT 33/17 A301 RMK A01 T03290165  RH  037%=      5-min Rain = 0
KMC5 032001Z 16003KT 33/16 A301 RMK A01 T03290163  RH  037%=      5-min Rain = 0
KMC5 032002Z 17007KT 33/16 A301 RMK A01 T03290163  RH  037%=      5-min Rain = 0
KMC5 032003Z 17007KT 33/16 A301 RMK A01 T03320161  RH  036%=      5-min Rain = 0
KMC5 032004Z 20006KT 33/16 A301 RMK A01 T03320157  RH  035%=      5-min Rain = 0
KMC5 032005Z 20008KT 33/16 A301 RMK A01 T03300162  RH  036%=      5-min Rain = 0
KMC5 032006Z 20006KT 33/16 A301 RMK A01 T03320159  RH  035%=      5-min Rain = 0
KMC5 032007Z 20006KT 33/16 A3009 RMK A01 T03320160  RH  036%=      5-min Rain = 0
KMC5 032008Z 21005KT 33/16 A3009 RMK A01 T03320159  RH  036%=      5-min Rain = 0
KMC5 032009Z 19008KT 33/16 A3009 RMK A01 T03320164  RH  036%=      5-min Rain = 0
KMC5 032010Z 20007KT 33/16 A301 RMK A01 T03330162  RH  036%=      5-min Rain = 0
KMC5 032011Z 19005KT 33/16 A301 RMK A01 T03320164  RH  036%=      5-min Rain = 0
KMC5 032012Z 18004KT 33/16 A301 RMK A01 T03320161  RH  036%=      5-min Rain = 0
KMC5 032013Z 13005KT 33/17 A301 RMK A01 T03310167  RH  037%=      5-min Rain = 0
KMC5 032014Z 12007G12KT 33/17 A301 RMK A01 T03340165  RH  037%=      5-min Rain = 0
KMC5 032015Z 13009KT 34/16 A301 RMK A01 T03360163  RH  036%=      5-min Rain = 0
KMC5 032016Z 13006KT 34/16 A301 RMK A01 T03350160  RH  035%=      5-min Rain = 0
KMC5 032017Z 12007KT 33/16 A301 RMK A01 T03320161  RH  036%=      5-min Rain = 0
KMC5 032018Z 11005KT 33/16 A3009 RMK A01 T03300157  RH  035%=      5-min Rain = 0
KMC5 032019Z 12006G11KT 33/16 A3009 RMK A01 T03260157  RH  036%=      5-min Rain = 0
KMC5 032020Z 14011KT 33/16 A3009 RMK A01 T03280159  RH  036%=      5-min Rain = 0
KMC5 032021Z 12009KT 33/16 A3009 RMK A01 T03310158  RH  035%=      5-min Rain = 0
KMC5 032022Z 13011KT 33/16 A3009 RMK A01 T03330161  RH  036%=      5-min Rain = 0
KMC5 032023Z 15009KT 34/16 A3009 RMK A01 T03350160  RH  035%=      5-min Rain = 0
KMC5 032024Z 13006KT 33/16 A3009 RMK A01 T03340155  RH  034%=      5-min Rain = 0
KMC5 032025Z 12006G13KT 33/16 A3009 RMK A01 T03340160  RH  035%=      5-min Rain = 0
KMC5 032026Z 14010KT 34/16 A3009 RMK A01 T03350156  RH  034%=      5-min Rain = 0
KMC5 032027Z 15006KT 33/15 A3009 RMK A01 T03330152  RH  034%=      5-min Rain = 0
KMC5 032028Z 16004KT 33/16 A3009 RMK A01 T03320158  RH  035%=      5-min Rain = 0
KMC5 032029Z 13005KT 33/16 A3009 RMK A01 T03330156  RH  035%=      5-min Rain = 0
KMC5 032030Z 12003KT 33/16 A3009 RMK A01 T03340155  RH  034%=      5-min Rain = 0
KMC5 032031Z 15002KT 34/16 A3009 RMK A01 T03350155  RH  034%=      5-min Rain = 0
KMC5 032032Z 16002KT 34/16 A3009 RMK A01 T03350155  RH  034%=      5-min Rain = 0
KMC5 032033Z 15003KT 34/16 A3009 RMK A01 T03360156  RH  034%=      5-min Rain = 0
KMC5 032034Z 17004KT 34/15 A3009 RMK A01 T03360154  RH  033%=      5-min Rain = 0
KMC5 032035Z 14003KT 34/15 A3009 RMK A01 T03370152  RH  033%=      5-min Rain = 0
KMC5 032036Z 15005G11KT 34/15 A3009 RMK A01 T03360154  RH  034%=      5-min Rain = 0
KMC5 032037Z 14011KT 34/15 A3009 RMK A01 T03360152  RH  033%=      5-min Rain = 0
KMC5 032038Z 13011KT 34/15 A3009 RMK A01 T03390154  RH  033%=      5-min Rain = 0
KMC5 032039Z 13010KT 34/15 A3009 RMK A01 T03380149  RH  032%=      5-min Rain = 0
KMC5 032040Z 13010KT 33/15 A3009 RMK A01 T03330147  RH  033%=      5-min Rain = 0
KMC5 032041Z 12007KT 33/15 A3009 RMK A01 T03300146  RH  033%=      5-min Rain = 0
KMC5 032042Z 11004KT 33/15 A3009 RMK A01 T03300146  RH  033%=      5-min Rain = 0
KMC5 032043Z 15007KT 33/15 A3009 RMK A01 T03320151  RH  034%=      5-min Rain = 0
KMC5 032044Z 15005KT 33/15 A3009 RMK A01 T03340151  RH  033%=      5-min Rain = 0
KMC5 032045Z 14005KT 34/16 A3009 RMK A01 T03380164  RH  036%=      5-min Rain = 0
KMC5 032046Z 11005KT 34/16 A3008 RMK A01 T03440161  RH  034%=      5-min Rain = 0
KMC5 032047Z 10005KT 35/16 A3008 RMK A01 T03460160  RH  033%=      5-min Rain = 0
KMC5 032048Z 09006KT 35/16 A3008 RMK A01 T03470159  RH  033%=      5-min Rain = 0
KMC5 032049Z 08005KT 35/15 A3008 RMK A01 T03460154  RH  032%=      5-min Rain = 0
KMC5 032050Z 10004KT 34/15 A3008 RMK A01 T03420147  RH  031%=      5-min Rain = 0
KMC5 032051Z 07004KT 34/15 A3008 RMK A01 T03390150  RH  032%=      5-min Rain = 0
KMC5 032052Z 10002KT 34/15 A3008 RMK A01 T03390149  RH  032%=      5-min Rain = 0
KMC5 032053Z 13003KT 34/15 A3008 RMK A01 T03380151  RH  032%=      5-min Rain = 0
KMC5 032054Z 13003KT 34/15 A3008 RMK A01 T03390147  RH  031%=      5-min Rain = 0
KMC5 032055Z 13005KT 34/15 A3008 RMK A01 T03390148  RH  032%=      5-min Rain = 0
KMC5 032056Z 16008KT 34/15 A3008 RMK A01 T03380151  RH  033%=      5-min Rain = 0
KMC5 032057Z 14006KT 34/15 A3008 RMK A01 T03390149  RH  032%=      5-min Rain = 0
KMC5 032058Z 17007KT 34/16 A3008 RMK A01 T03380155  RH  033%=      5-min Rain = 0
KMC5 032059Z 17008KT 34/15 A3008 RMK A01 T03400147  RH  031%=      5-min Rain = 0
KMC5 032100Z 15008KT 34/15 A3008 RMK A01 T03390149  RH  032%=      5-min Rain = 0
KMC5 032101Z 15008KT 34/15 A3008 RMK A01 T03400151  RH  032%=      5-min Rain = 0
KMC5 032102Z 16006KT 34/15 A3008 RMK A01 T03410152  RH  032%=      5-min Rain = 0
KMC5 032103Z 16006KT 34/15 A3008 RMK A01 T03400151  RH  032%=      5-min Rain = 0
KMC5 032104Z 09007KT 34/16 A3008 RMK A01 T03400159  RH  034%=      5-min Rain = 0
KMC5 032105Z 09006KT 34/15 A3008 RMK A01 T03400154  RH  033%=      5-min Rain = 0
KMC5 032106Z 08007KT 34/16 A3008 RMK A01 T03380156  RH  034%=      5-min Rain = 0
KMC5 032107Z 10009KT 34/16 A3008 RMK A01 T03400161  RH  034%=      5-min Rain = 0
KMC5 032108Z 09011KT 34/16 A3008 RMK A01 T03410157  RH  033%=      5-min Rain = 0
KMC5 032109Z 08008KT 34/16 A3008 RMK A01 T03390157  RH  034%=      5-min Rain = 0
KMC5 032110Z 10008KT 34/16 A3008 RMK A01 T03410159  RH  034%=      5-min Rain = 0
KMC5 032111Z 09006KT 34/15 A3008 RMK A01 T03410154  RH  033%=      5-min Rain = 0
KMC5 032112Z 08008KT 34/15 A3008 RMK A01 T03380154  RH  033%=      5-min Rain = 0
KMC5 032113Z 12010KT 34/16 A3008 RMK A01 T03390158  RH  034%=      5-min Rain = 0
KMC5 032114Z 10009KT 34/16 A3008 RMK A01 T03430163  RH  034%=      5-min Rain = 0
KMC5 032115Z 09010KT 35/16 A3008 RMK A01 T03450158  RH  033%=      5-min Rain = 0
KMC5 032116Z 09008KT 34/15 A3008 RMK A01 T03420153  RH  032%=      5-min Rain = 0
KMC5 032117Z 12010KT 34/16 A3007 RMK A01 T03400157  RH  034%=      5-min Rain = 0
KMC5 032118Z 11010KT 34/16 A3007 RMK A01 T03410157  RH  033%=      5-min Rain = 0
KMC5 032119Z 10008KT 34/16 A3007 RMK A01 T03440161  RH  034%=      5-min Rain = 0
KMC5 032120Z 10006KT 35/15 A3007 RMK A01 T03460154  RH  032%=      5-min Rain = 0
KMC5 032121Z 09009KT 35/16 A3007 RMK A01 T03450158  RH  033%=      5-min Rain = 0
KMC5 032122Z 11008KT 35/16 A3007 RMK A01 T03450155  RH  032%=      5-min Rain = 0
KMC5 032123Z 11009KT 34/15 A3007 RMK A01 T03440152  RH  032%=      5-min Rain = 0
KMC5 032124Z 10008KT 34/15 A3007 RMK A01 T03440151  RH  032%=      5-min Rain = 0
KMC5 032125Z 09005KT 34/15 A3007 RMK A01 T03430151  RH  032%=      5-min Rain = 0
KMC5 032126Z 08004KT 34/15 A3007 RMK A01 T03410146  RH  031%=      5-min Rain = 0
KMC5 032127Z 10005KT 34/15 A3007 RMK A01 T03390150  RH  032%=      5-min Rain = 0
KMC5 032128Z 12008KT 34/16 A3007 RMK A01 T03400155  RH  033%=      5-min Rain = 0
KMC5 032129Z 12010KT 34/16 A3007 RMK A01 T03400155  RH  033%=      5-min Rain = 0
KMC5 032130Z 13006KT 34/15 A3007 RMK A01 T03390152  RH  033%=      5-min Rain = 0
KMC5 032131Z 14006KT 34/16 A3007 RMK A01 T03380158  RH  034%=      5-min Rain = 0
KMC5 032132Z 14006KT 34/15 A3007 RMK A01 T03400152  RH  033%=      5-min Rain = 0
KMC5 032133Z 14005KT 34/16 A3007 RMK A01 T03390155  RH  033%=      5-min Rain = 0
KMC5 032134Z 15007KT 34/16 A3007 RMK A01 T03410162  RH  034%=      5-min Rain = 0
KMC5 032135Z 15008KT 34/15 A3007 RMK A01 T03440154  RH  032%=      5-min Rain = 0
KMC5 032136Z 15008KT 34/15 A3007 RMK A01 T03430152  RH  032%=      5-min Rain = 0
KMC5 032137Z 17005KT 34/15 A3007 RMK A01 T03420150  RH  032%=      5-min Rain = 0
KMC5 032138Z 17005KT 34/16 A3007 RMK A01 T03410155  RH  033%=      5-min Rain = 0
KMC5 032139Z 17006KT 34/15 A3007 RMK A01 T03410150  RH  032%=      5-min Rain = 0
KMC5 032140Z 18004KT 34/15 A3007 RMK A01 T03410149  RH  032%=      5-min Rain = 0
KMC5 032141Z 15002KT 34/15 A3007 RMK A01 T03400149  RH  032%=      5-min Rain = 0
KMC5 032142Z 15004KT 34/15 A3007 RMK A01 T03410152  RH  032%=      5-min Rain = 0
KMC5 032143Z 13009KT 34/15 A3007 RMK A01 T03420153  RH  032%=      5-min Rain = 0
KMC5 032144Z 14008KT 34/16 A3007 RMK A01 T03430155  RH  033%=      5-min Rain = 0
KMC5 032145Z 14005KT 34/16 A3006 RMK A01 T03430155  RH  032%=      5-min Rain = 0
KMC5 032146Z 12005KT 34/16 A3006 RMK A01 T03440157  RH  033%=      5-min Rain = 0
KMC5 032147Z 13007KT 34/16 A3006 RMK A01 T03430155  RH  033%=      5-min Rain = 0
KMC5 032148Z 12007KT 34/15 A3006 RMK A01 T03420150  RH  032%=      5-min Rain = 0
KMC5 032149Z 13006KT 34/15 A3006 RMK A01 T03390154  RH  033%=      5-min Rain = 0
KMC5 032150Z 11007KT 34/15 A3006 RMK A01 T03400151  RH  032%=      5-min Rain = 0
KMC5 032151Z 10009KT 34/14 A3006 RMK A01 T03400144  RH  031%=      5-min Rain = 0
KMC5 032152Z 10009KT 34/15 A3006 RMK A01 T03390148  RH  032%=      5-min Rain = 0
KMC5 032153Z 11008KT 34/14 A3006 RMK A01 T03410143  RH  030%=      5-min Rain = 0
KMC5 032154Z 13011KT 34/15 A3006 RMK A01 T03420153  RH  032%=      5-min Rain = 0
KMC5 032155Z 12010KT 34/15 A3006 RMK A01 T03420146  RH  031%=      5-min Rain = 0
KMC5 032156Z 10005KT 34/15 A3006 RMK A01 T03400148  RH  032%=      5-min Rain = 0
KMC5 032157Z 12005KT 34/15 A3006 RMK A01 T03400151  RH  032%=      5-min Rain = 0
KMC5 032158Z 17006KT 34/16 A3006 RMK A01 T03420158  RH  033%=      5-min Rain = 0
KMC5 032159Z 20003KT 35/15 A3006 RMK A01 T03450150  RH  031%=      5-min Rain = 0
KMC5 032200Z 18004KT 35/16 A3006 RMK A01 T03450156  RH  032%=      5-min Rain = 0
KMC5 032201Z 13004KT 35/16 A3006 RMK A01 T03460157  RH  032%=      5-min Rain = 0
KMC5 032202Z 10007KT 35/15 A3006 RMK A01 T03470151  RH  031%=      5-min Rain = 0
KMC5 032203Z 09004KT 34/14 A3006 RMK A01 T03430141  RH  030%=      5-min Rain = 0
KMC5 032204Z 09004KT 34/15 A3006 RMK A01 T03390147  RH  032%=      5-min Rain = 0
KMC5 032205Z 09005KT 34/15 A3006 RMK A01 T03390145  RH  031%=      5-min Rain = 0
KMC5 032206Z 12005KT 34/15 A3006 RMK A01 T03400150  RH  032%=      5-min Rain = 0
KMC5 032207Z 10003KT 34/15 A3006 RMK A01 T03410147  RH  031%=      5-min Rain = 0
KMC5 032208Z 13002KT 34/15 A3006 RMK A01 T03420148  RH  031%=      5-min Rain = 0
KMC5 032209Z 13003KT 34/15 A3006 RMK A01 T03430149  RH  031%=      5-min Rain = 0
KMC5 032210Z 13008KT 34/15 A3006 RMK A01 T03440147  RH  031%=      5-min Rain = 0
KMC5 032211Z 12009KT 34/15 A3006 RMK A01 T03440145  RH  030%=      5-min Rain = 0
KMC5 032212Z 13006KT 34/14 A3006 RMK A01 T03430142  RH  030%=      5-min Rain = 0
KMC5 032213Z 14007KT 34/14 A3006 RMK A01 T03420143  RH  030%=      5-min Rain = 0
KMC5 032214Z 14006KT 34/14 A3006 RMK A01 T03410141  RH  030%=      5-min Rain = 0
KMC5 032215Z 15007KT 34/15 A3006 RMK A01 T03410149  RH  032%=      5-min Rain = 0
KMC5 032216Z 16009KT 34/15 A3005 RMK A01 T03440147  RH  031%=      5-min Rain = 0
KMC5 032217Z 18008KT 35/15 A3005 RMK A01 T03460149  RH  031%=      5-min Rain = 0
KMC5 032218Z 17009KT 35/15 A3005 RMK A01 T03480147  RH  030%=      5-min Rain = 0
KMC5 032219Z 18006KT 35/15 A3005 RMK A01 T03470146  RH  030%=      5-min Rain = 0
KMC5 032220Z 18007KT 35/15 A3005 RMK A01 T03460149  RH  031%=      5-min Rain = 0
KMC5 032221Z 17007KT 35/15 A3005 RMK A01 T03470147  RH  030%=      5-min Rain = 0
KMC5 032222Z 18006KT 35/15 A3005 RMK A01 T03460151  RH  031%=      5-min Rain = 0
KMC5 032223Z 18008KT 35/15 A3005 RMK A01 T03470150  RH  031%=      5-min Rain = 0
KMC5 032224Z 18010KT 35/15 A3005 RMK A01 T03480146  RH  030%=      5-min Rain = 0
KMC5 032225Z 17008KT 35/15 A3005 RMK A01 T03480152  RH  031%=      5-min Rain = 0
KMC5 032226Z 15009KT 35/15 A3005 RMK A01 T03500151  RH  031%=      5-min Rain = 0
KMC5 032227Z 13009KT 35/15 A3005 RMK A01 T03500145  RH  029%=      5-min Rain = 0
KMC5 032228Z 13008KT 35/14 A3005 RMK A01 T03460141  RH  029%=      5-min Rain = 0
KMC5 032229Z 12008KT 34/14 A3005 RMK A01 T03430142  RH  030%=      5-min Rain = 0
KMC5 032230Z 12006KT 34/14 A3005 RMK A01 T03420142  RH  030%=      5-min Rain = 0
KMC5 032231Z 14006KT 34/15 A3005 RMK A01 T03430148  RH  031%=      5-min Rain = 0
KMC5 032232Z 14007KT 35/15 A3005 RMK A01 T03450146  RH  030%=      5-min Rain = 0
KMC5 032233Z 15006KT 35/15 A3005 RMK A01 T03470149  RH  031%=      5-min Rain = 0
KMC5 032234Z 16006KT 35/14 A3005 RMK A01 T03480144  RH  029%=      5-min Rain = 0
KMC5 032235Z 13005KT 35/14 A3005 RMK A01 T03470142  RH  029%=      5-min Rain = 0
KMC5 032236Z 13006KT 35/15 A3005 RMK A01 T03450150  RH  031%=      5-min Rain = 0
KMC5 032237Z 13007KT 35/14 A3005 RMK A01 T03460142  RH  029%=      5-min Rain = 0
KMC5 032238Z 12008KT 35/14 A3005 RMK A01 T03450143  RH  030%=      5-min Rain = 0
KMC5 032239Z 11005KT 34/14 A3005 RMK A01 T03440138  RH  029%=      5-min Rain = 0
KMC5 032240Z 12004KT 34/14 A3005 RMK A01 T03410140  RH  030%=      5-min Rain = 0
KMC5 032241Z 11005KT 34/14 A3005 RMK A01 T03410140  RH  030%=      5-min Rain = 0
KMC5 032242Z 13005KT 34/14 A3005 RMK A01 T03410140  RH  030%=      5-min Rain = 0
KMC5 032243Z 13004KT 34/14 A3005 RMK A01 T03410138  RH  029%=      5-min Rain = 0
KMC5 032244Z 11006KT 34/14 A3005 RMK A01 T03410143  RH  030%=      5-min Rain = 0
KMC5 032245Z 13006G11KT 34/15 A3005 RMK A01 T03430149  RH  031%=      5-min Rain = 0
KMC5 032246Z 13009KT 35/15 A3005 RMK A01 T03450146  RH  030%=      5-min Rain = 0
KMC5 032247Z 13008KT 35/15 A3005 RMK A01 T03450146  RH  030%=      5-min Rain = 0
KMC5 032248Z 14008KT 34/15 A3005 RMK A01 T03440145  RH  030%=      5-min Rain = 0
KMC5 032249Z 14006KT 34/14 A3005 RMK A01 T03440143  RH  030%=      5-min Rain = 0
KMC5 032250Z 15009KT 34/15 A3005 RMK A01 T03430145  RH  030%=      5-min Rain = 0
KMC5 032251Z 15006KT 34/14 A3004 RMK A01 T03430143  RH  030%=      5-min Rain = 0
KMC5 032252Z 12007KT 34/15 A3004 RMK A01 T03430146  RH  031%=      5-min Rain = 0
KMC5 032253Z 11008KT 34/14 A3004 RMK A01 T03440142  RH  030%=      5-min Rain = 0
KMC5 032254Z 12013KT 34/15 A3004 RMK A01 T03430145  RH  030%=      5-min Rain = 0
KMC5 032255Z 11012KT 34/14 A3004 RMK A01 T03430138  RH  029%=      5-min Rain = 0
KMC5 032256Z 12010KT 34/14 A3004 RMK A01 T03420140  RH  030%=      5-min Rain = 0
KMC5 032257Z 11009KT 34/14 A3004 RMK A01 T03420144  RH  030%=      5-min Rain = 0
KMC5 032258Z 11009KT 34/14 A3004 RMK A01 T03430142  RH  030%=      5-min Rain = 0
KMC5 032259Z 11009KT 34/14 A3004 RMK A01 T03430141  RH  030%=      5-min Rain = 0
KMC5 032300Z 11008KT 34/14 A3004 RMK A01 T03430144  RH  030%=      5-min Rain = 0
KMC5 032301Z 10007KT 34/14 A3004 RMK A01 T03440138  RH  029%=      5-min Rain = 0
KMC5 032302Z 10009KT 34/14 A3004 RMK A01 T03430139  RH  029%=      5-min Rain = 0
KMC5 032303Z 11007KT 34/14 A3004 RMK A01 T03420139  RH  029%=      5-min Rain = 0
KMC5 032304Z 10006KT 34/14 A3004 RMK A01 T03420139  RH  029%=      5-min Rain = 0
KMC5 032305Z 11006KT 34/14 A3004 RMK A01 T03420143  RH  030%=      5-min Rain = 0
KMC5 032306Z 12007KT 34/14 A3004 RMK A01 T03440143  RH  030%=      5-min Rain = 0
KMC5 032307Z 14010KT 34/15 A3004 RMK A01 T03440145  RH  030%=      5-min Rain = 0
KMC5 032308Z 15012KT 34/14 A3004 RMK A01 T03440144  RH  030%=      5-min Rain = 0
KMC5 032309Z 14010KT 34/14 A3004 RMK A01 T03440144  RH  030%=      5-min Rain = 0
KMC5 032310Z 14010KT 34/14 A3004 RMK A01 T03440144  RH  030%=      5-min Rain = 0
KMC5 032311Z 13010KT 34/14 A3004 RMK A01 T03440140  RH  029%=      5-min Rain = 0
KMC5 032312Z 14008KT 34/14 A3004 RMK A01 T03430142  RH  030%=      5-min Rain = 0
KMC5 032313Z 15009KT 34/14 A3004 RMK A01 T03430144  RH  030%=      5-min Rain = 0
KMC5 032314Z 16010KT 34/14 A3004 RMK A01 T03440139  RH  029%=      5-min Rain = 0
KMC5 032315Z 17009KT 34/14 A3004 RMK A01 T03430138  RH  029%=      5-min Rain = 0
KMC5 032316Z 17007KT 34/14 A3004 RMK A01 T03420139  RH  029%=      5-min Rain = 0
KMC5 032317Z 18007KT 34/13 A3004 RMK A01 T03420133  RH  028%=      5-min Rain = 0
KMC5 032318Z 14007KT 34/14 A3004 RMK A01 T03400142  RH  030%=      5-min Rain = 0
KMC5 032319Z 12008KT 34/15 A3004 RMK A01 T03420145  RH  031%=      5-min Rain = 0
KMC5 032320Z 13008KT 34/14 A3004 RMK A01 T03430138  RH  029%=      5-min Rain = 0
KMC5 032321Z 13009KT 34/14 A3003 RMK A01 T03420138  RH  029%=      5-min Rain = 0
KMC5 032322Z 12008KT 34/14 A3003 RMK A01 T03410139  RH  030%=      5-min Rain = 0
KMC5 032323Z 12008KT 34/14 A3003 RMK A01 T03400136  RH  029%=      5-min Rain = 0
KMC5 032324Z 12008KT 34/14 A3003 RMK A01 T03400143  RH  031%=      5-min Rain = 0
KMC5 032325Z 13011KT 34/15 A3003 RMK A01 T03400145  RH  031%=      5-min Rain = 0
KMC5 032326Z 14010KT 34/15 A3003 RMK A01 T03410146  RH  031%=      5-min Rain = 0
KMC5 032327Z 14011KT 34/15 A3003 RMK A01 T03420146  RH  031%=      5-min Rain = 0
KMC5 032328Z 16009KT 34/14 A3003 RMK A01 T03420141  RH  030%=      5-min Rain = 0
KMC5 032329Z 13011KT 34/15 A3003 RMK A01 T03420146  RH  031%=      5-min Rain = 0
KMC5 032330Z 13011KT 34/14 A3003 RMK A01 T03420142  RH  030%=      5-min Rain = 0
KMC5 032331Z 14010KT 34/14 A3003 RMK A01 T03410141  RH  030%=      5-min Rain = 0
KMC5 032332Z 14009KT 34/14 A3003 RMK A01 T03400142  RH  030%=      5-min Rain = 0
KMC5 032333Z 12007KT 34/15 A3003 RMK A01 T03410147  RH  031%=      5-min Rain = 0
KMC5 032334Z 13009KT 34/14 A3003 RMK A01 T03410143  RH  030%=      5-min Rain = 0
KMC5 032335Z 13007KT 34/14 A3003 RMK A01 T03410142  RH  030%=      5-min Rain = 0
KMC5 032336Z 13008KT 34/15 A3003 RMK A01 T03410145  RH  031%=      5-min Rain = 0
KMC5 032337Z 13009KT 34/14 A3003 RMK A01 T03410141  RH  030%=      5-min Rain = 0
KMC5 032338Z 13009KT 34/14 A3003 RMK A01 T03410142  RH  030%=      5-min Rain = 0
KMC5 032339Z 14009KT 34/14 A3003 RMK A01 T03400144  RH  031%=      5-min Rain = 0
KMC5 032340Z 13009KT 34/14 A3003 RMK A01 T03400140  RH  030%=      5-min Rain = 0
KMC5 032341Z 13008KT 34/14 A3003 RMK A01 T03390143  RH  031%=      5-min Rain = 0
KMC5 032342Z 13008KT 34/14 A3003 RMK A01 T03390141  RH  030%=      5-min Rain = 0
KMC5 032343Z 13007KT 34/14 A3003 RMK A01 T03390138  RH  030%=      5-min Rain = 0
KMC5 032344Z 12008KT 34/14 A3003 RMK A01 T03390140  RH  030%=      5-min Rain = 0
KMC5 032345Z 12008KT 34/14 A3003 RMK A01 T03390141  RH  030%=      5-min Rain = 0
KMC5 032346Z 13010KT 34/14 A3003 RMK A01 T03380141  RH  030%=      5-min Rain = 0
KMC5 032347Z 13008KT 34/14 A3003 RMK A01 T03380140  RH  030%=      5-min Rain = 0
KMC5 032348Z 12007KT 34/14 A3003 RMK A01 T03380138  RH  030%=      5-min Rain = 0
KMC5 032349Z 11009KT 34/14 A3003 RMK A01 T03380141  RH  031%=      5-min Rain = 0
KMC5 032350Z 11006KT 34/14 A3003 RMK A01 T03380141  RH  031%=      5-min Rain = 0
KMC5 032351Z 13007KT 34/14 A3003 RMK A01 T03380141  RH  031%=      5-min Rain = 0
KMC5 032352Z 13005KT 34/14 A3003 RMK A01 T03380142  RH  031%=      5-min Rain = 0
KMC5 032353Z 12006KT 34/14 A3003 RMK A01 T03390141  RH  030%=      5-min Rain = 0
KMC5 032354Z 13004KT 34/14 A3003 RMK A01 T03390141  RH  030%=      5-min Rain = 0
KMC5 032355Z 15005KT 34/14 A3003 RMK A01 T03390144  RH  031%=      5-min Rain = 0
KMC5 032356Z 15006KT 34/15 A3003 RMK A01 T03390147  RH  031%=      5-min Rain = 0
KMC5 032357Z 16006KT 34/15 A3003 RMK A01 T03400149  RH  032%=      5-min Rain = 0
KMC5 032358Z 17008KT 34/14 A3003 RMK A01 T03400144  RH  031%=      5-min Rain = 0
KMC5 032359Z 17007KT 34/14 A3003 RMK A01 T03390144  RH  031%=      5-min Rain = 0
KMC5 040000Z 14007KT 34/15 A3003 RMK A01 T03380151  RH  032%=      5-min Rain = 0
KMC5 040001Z 14010KT 34/15 A3003 RMK A01 T03380150  RH  032%=      5-min Rain = 0
KMC5 040002Z 14011KT 34/15 A3003 RMK A01 T03380148  RH  032%=      5-min Rain = 0
KMC5 040003Z 14009KT 34/15 A3003 RMK A01 T03370149  RH  032%=      5-min Rain = 0
KMC5 040004Z 15008KT 34/15 A3003 RMK A01 T03360149  RH  032%=      5-min Rain = 0
KMC5 040005Z 13009KT 34/15 A3003 RMK A01 T03360150  RH  033%=      5-min Rain = 0
KMC5 040006Z 14009KT 34/15 A3003 RMK A01 T03360146  RH  032%=      5-min Rain = 0
KMC5 040007Z 14009KT 34/15 A3003 RMK A01 T03360146  RH  032%=      5-min Rain = 0
KMC5 040008Z 15007KT 34/15 A3003 RMK A01 T03350148  RH  032%=      5-min Rain = 0
KMC5 040009Z 15007KT 34/15 A3003 RMK A01 T03350150  RH  033%=      5-min Rain = 0
KMC5 040010Z 15008KT 34/15 A3003 RMK A01 T03360145  RH  032%=      5-min Rain = 0
KMC5 040011Z 15008KT 34/15 A3003 RMK A01 T03360146  RH  032%=      5-min Rain = 0
KMC5 040012Z 15008KT 34/15 A3003 RMK A01 T03360149  RH  033%=      5-min Rain = 0
KMC5 040013Z 15009KT 34/15 A3003 RMK A01 T03360147  RH  032%=      5-min Rain = 0
KMC5 040014Z 15010KT 34/15 A3003 RMK A01 T03360147  RH  032%=      5-min Rain = 0
KMC5 040015Z 14009KT 34/15 A3003 RMK A01 T03360147  RH  032%=      5-min Rain = 0
KMC5 040016Z 13009KT 34/15 A3003 RMK A01 T03360146  RH  032%=      5-min Rain = 0
KMC5 040017Z 14007KT 34/15 A3003 RMK A01 T03350148  RH  032%=      5-min Rain = 0
KMC5 040018Z 14008KT 34/15 A3003 RMK A01 T03350152  RH  033%=      5-min Rain = 0
KMC5 040019Z 15009KT 34/15 A3003 RMK A01 T03350153  RH  033%=      5-min Rain = 0
KMC5 040020Z 17007KT 34/15 A3003 RMK A01 T03350154  RH  034%=      5-min Rain = 0
KMC5 040021Z 17010KT 34/15 A3003 RMK A01 T03350150  RH  033%=      5-min Rain = 0
KMC5 040022Z 17010KT 34/15 A3003 RMK A01 T03350146  RH  032%=      5-min Rain = 0
KMC5 040023Z 17008KT 33/14 A3003 RMK A01 T03330144  RH  032%=      5-min Rain = 0
KMC5 040024Z 17007KT 33/14 A3003 RMK A01 T03320143  RH  032%=      5-min Rain = 0
KMC5 040025Z 17006KT 33/14 A3004 RMK A01 T03300144  RH  033%=      5-min Rain = 0
KMC5 040026Z 18006KT 33/14 A3004 RMK A01 T03290143  RH  033%=      5-min Rain = 0
KMC5 040027Z 17005KT 33/15 A3004 RMK A01 T03290150  RH  034%=      5-min Rain = 0
KMC5 040028Z 17005KT 33/15 A3004 RMK A01 T03280152  RH  035%=      5-min Rain = 0
KMC5 040029Z 17005KT 33/16 A3004 RMK A01 T03270155  RH  035%=      5-min Rain = 0
KMC5 040030Z 16005KT 33/16 A3004 RMK A01 T03270156  RH  036%=      5-min Rain = 0
KMC5 040031Z 16007KT 33/16 A3004 RMK A01 T03270155  RH  036%=      5-min Rain = 0
KMC5 040032Z 16007KT 33/15 A3004 RMK A01 T03280151  RH  034%=      5-min Rain = 0
KMC5 040033Z 17007KT 33/15 A3004 RMK A01 T03290152  RH  034%=      5-min Rain = 0
KMC5 040034Z 16007KT 33/15 A3004 RMK A01 T03300153  RH  034%=      5-min Rain = 0
KMC5 040035Z 16007KT 33/15 A3004 RMK A01 T03300148  RH  033%=      5-min Rain = 0
KMC5 040036Z 16006KT 33/15 A3004 RMK A01 T03300152  RH  034%=      5-min Rain = 0
KMC5 040037Z 16006KT 33/15 A3004 RMK A01 T03300151  RH  034%=      5-min Rain = 0
KMC5 040038Z 15006KT 33/15 A3004 RMK A01 T03300150  RH  034%=      5-min Rain = 0
KMC5 040039Z 15008KT 33/15 A3004 RMK A01 T03300147  RH  033%=      5-min Rain = 0
KMC5 040040Z 15007KT 33/15 A3004 RMK A01 T03290146  RH  033%=      5-min Rain = 0
KMC5 040041Z 15008KT 33/15 A3004 RMK A01 T03290147  RH  033%=      5-min Rain = 0
KMC5 040042Z 15008KT 33/15 A3004 RMK A01 T03290149  RH  034%=      5-min Rain = 0
KMC5 040043Z 15008KT 33/15 A3004 RMK A01 T03280146  RH  033%=      5-min Rain = 0
KMC5 040044Z 15007KT 33/15 A3004 RMK A01 T03280150  RH  034%=      5-min Rain = 0
KMC5 040045Z 15008KT 33/15 A3004 RMK A01 T03270149  RH  034%=      5-min Rain = 0
KMC5 040046Z 15007KT 33/15 A3004 RMK A01 T03260151  RH  035%=      5-min Rain = 0
KMC5 040047Z 15007KT 33/15 A3004 RMK A01 T03250151  RH  035%=      5-min Rain = 0
KMC5 040048Z 15006KT 33/15 A3004 RMK A01 T03250153  RH  036%=      5-min Rain = 0
KMC5 040049Z 15006KT 32/15 A3004 RMK A01 T03240153  RH  036%=      5-min Rain = 0
KMC5 040050Z 15006KT 32/15 A3004 RMK A01 T03230150  RH  035%=      5-min Rain = 0
KMC5 040051Z 15006KT 32/15 A3004 RMK A01 T03230149  RH  035%=      5-min Rain = 0
KMC5 040052Z 15006KT 32/15 A3004 RMK A01 T03220150  RH  035%=      5-min Rain = 0
KMC5 040053Z 15006KT 32/15 A3004 RMK A01 T03210152  RH  036%=      5-min Rain = 0
KMC5 040054Z 15006KT 32/15 A3004 RMK A01 T03200152  RH  036%=      5-min Rain = 0
KMC5 040055Z 15006KT 32/15 A3004 RMK A01 T03200152  RH  036%=      5-min Rain = 0
KMC5 040056Z 16005KT 32/15 A3004 RMK A01 T03190151  RH  036%=      5-min Rain = 0
KMC5 040057Z 16005KT 32/15 A3004 RMK A01 T03180152  RH  037%=      5-min Rain = 0
KMC5 040058Z 16005KT 32/15 A3004 RMK A01 T03170152  RH  037%=      5-min Rain = 0
KMC5 040059Z 16005KT 32/15 A3004 RMK A01 T03160153  RH  037%=      5-min Rain = 0
KMC5 040100Z 15005KT 32/15 A3004 RMK A01 T03150154  RH  038%=      5-min Rain = 0
KMC5 040101Z 16005KT 31/16 A3004 RMK A01 T03130156  RH  039%=      5-min Rain = 0
KMC5 040102Z 17004KT 31/16 A3004 RMK A01 T03120155  RH  039%=      5-min Rain = 0
KMC5 040103Z 17005KT 31/16 A3004 RMK A01 T03110155  RH  039%=      5-min Rain = 0
KMC5 040104Z 16004KT 31/16 A3004 RMK A01 T03110156  RH  039%=      5-min Rain = 0
KMC5 040105Z 16004KT 31/16 A3004 RMK A01 T03100157  RH  040%=      5-min Rain = 0
KMC5 040106Z 15005KT 31/16 A3004 RMK A01 T03090158  RH  040%=      5-min Rain = 0
KMC5 040107Z 15005KT 31/16 A3004 RMK A01 T03080157  RH  040%=      5-min Rain = 0
KMC5 040108Z 17004KT 31/16 A3004 RMK A01 T03070157  RH  040%=      5-min Rain = 0
KMC5 040109Z 17004KT 31/16 A3004 RMK A01 T03070157  RH  040%=      5-min Rain = 0
KMC5 040110Z 17007KT 31/16 A3004 RMK A01 T03060155  RH  040%=      5-min Rain = 0
KMC5 040111Z 17005KT 31/16 A3004 RMK A01 T03070156  RH  040%=      5-min Rain = 0
KMC5 040112Z 17005KT 31/16 A3004 RMK A01 T03070158  RH  041%=      5-min Rain = 0
KMC5 040113Z 17005KT 31/16 A3004 RMK A01 T03060159  RH  041%=      5-min Rain = 0
KMC5 040114Z 17006KT 31/16 A3004 RMK A01 T03050159  RH  041%=      5-min Rain = 0
KMC5 040115Z 16005KT 31/16 A3005 RMK A01 T03050156  RH  040%=      5-min Rain = 0
KMC5 040116Z 16005KT 31/16 A3005 RMK A01 T03050157  RH  041%=      5-min Rain = 0
KMC5 040117Z 16006KT 31/16 A3005 RMK A01 T03050157  RH  041%=      5-min Rain = 0
KMC5 040118Z 16005KT 31/16 A3005 RMK A01 T03050157  RH  041%=      5-min Rain = 0
KMC5 040119Z 16005KT 31/16 A3005 RMK A01 T03050157  RH  041%=      5-min Rain = 0
KMC5 040120Z 16005KT 30/16 A3005 RMK A01 T03040157  RH  041%=      5-min Rain = 0
KMC5 040121Z 17005KT 30/16 A3005 RMK A01 T03040158  RH  041%=      5-min Rain = 0
KMC5 040122Z 17005KT 30/16 A3005 RMK A01 T03040159  RH  042%=      5-min Rain = 0
KMC5 040123Z 17005KT 30/16 A3005 RMK A01 T03030159  RH  042%=      5-min Rain = 0
KMC5 040124Z 16005KT 30/16 A3005 RMK A01 T03020158  RH  042%=      5-min Rain = 0
KMC5 040125Z 17005KT 30/16 A3005 RMK A01 T03020159  RH  042%=      5-min Rain = 0
KMC5 040126Z 17005KT 30/16 A3005 RMK A01 T03010159  RH  042%=      5-min Rain = 0
KMC5 040127Z 17005KT 30/16 A3005 RMK A01 T03010158  RH  042%=      5-min Rain = 0
KMC5 040128Z 16005KT 30/16 A3005 RMK A01 T03010158  RH  042%=      5-min Rain = 0
KMC5 040129Z 17005KT 30/16 A3005 RMK A01 T03010159  RH  042%=      5-min Rain = 0
KMC5 040130Z 17006KT 30/16 A3005 RMK A01 T03010160  RH  043%=      5-min Rain = 0
KMC5 040131Z 17006KT 30/16 A3005 RMK A01 T03000160  RH  043%=      5-min Rain = 0
KMC5 040132Z 17006KT 30/16 A3005 RMK A01 T03000162  RH  043%=      5-min Rain = 0
KMC5 040133Z 17006KT 30/16 A3005 RMK A01 T02990160  RH  043%=      5-min Rain = 0
KMC5 040134Z 17006KT 30/16 A3005 RMK A01 T02990159  RH  043%=      5-min Rain = 0
KMC5 040135Z 17006KT 30/16 A3005 RMK A01 T02990158  RH  043%=      5-min Rain = 0
KMC5 040136Z 17006KT 30/16 A3005 RMK A01 T02990159  RH  043%=      5-min Rain = 0
KMC5 040137Z 17006KT 30/16 A3005 RMK A01 T02980160  RH  043%=      5-min Rain = 0
KMC5 040138Z 16006KT 30/16 A3005 RMK A01 T02980160  RH  043%=      5-min Rain = 0
KMC5 040139Z 16006KT 30/16 A3005 RMK A01 T02970158  RH  043%=      5-min Rain = 0
KMC5 040140Z 16006KT 30/16 A3005 RMK A01 T02970159  RH  043%=      5-min Rain = 0
KMC5 040141Z 16006KT 30/16 A3005 RMK A01 T02970158  RH  043%=      5-min Rain = 0
KMC5 040142Z 16005KT 30/16 A3005 RMK A01 T02970159  RH  043%=      5-min Rain = 0
KMC5 040143Z 16005KT 30/16 A3005 RMK A01 T02970160  RH  044%=      5-min Rain = 0
KMC5 040144Z 16005KT 30/16 A3005 RMK A01 T02960160  RH  044%=      5-min Rain = 0
KMC5 040145Z 15005KT 30/16 A3005 RMK A01 T02950160  RH  044%=      5-min Rain = 0
KMC5 040146Z 16005KT 30/16 A3005 RMK A01 T02950160  RH  044%=      5-min Rain = 0
KMC5 040147Z 16005KT 30/16 A3005 RMK A01 T02950159  RH  044%=      5-min Rain = 0
KMC5 040148Z 16005KT 30/16 A3005 RMK A01 T02950158  RH  044%=      5-min Rain = 0
KMC5 040149Z 15005KT 30/16 A3005 RMK A01 T02950159  RH  044%=      5-min Rain = 0
KMC5 040150Z 15005KT 30/16 A3005 RMK A01 T02950158  RH  044%=      5-min Rain = 0
KMC5 040151Z 15005KT 30/16 A3005 RMK A01 T02950159  RH  044%=      5-min Rain = 0
KMC5 040152Z 15005KT 30/16 A3005 RMK A01 T02950159  RH  044%=      5-min Rain = 0
KMC5 040153Z 15005KT 30/16 A3005 RMK A01 T02950160  RH  044%=      5-min Rain = 0
KMC5 040154Z 15004KT 30/16 A3005 RMK A01 T02950159  RH  044%=      5-min Rain = 0
KMC5 040155Z 15005KT 29/16 A3005 RMK A01 T02940160  RH  044%=      5-min Rain = 0
KMC5 040156Z 15005KT 29/16 A3005 RMK A01 T02940159  RH  044%=      5-min Rain = 0
KMC5 040157Z 15005KT 29/16 A3005 RMK A01 T02940159  RH  044%=      5-min Rain = 0
KMC5 040158Z 15005KT 29/16 A3005 RMK A01 T02940159  RH  044%=      5-min Rain = 0
KMC5 040159Z 15006KT 29/16 A3005 RMK A01 T02940159  RH  044%=      5-min Rain = 0
KMC5 040200Z 15006KT 29/16 A3005 RMK A01 T02930159  RH  044%=      5-min Rain = 0
KMC5 040201Z 16006KT 29/16 A3005 RMK A01 T02930160  RH  044%=      5-min Rain = 0
KMC5 040202Z 16007KT 29/16 A3005 RMK A01 T02920159  RH  045%=      5-min Rain = 0
KMC5 040203Z 15007KT 29/16 A3005 RMK A01 T02920158  RH  044%=      5-min Rain = 0
KMC5 040204Z 16007KT 29/16 A3005 RMK A01 T02920157  RH  044%=      5-min Rain = 0
KMC5 040205Z 16006KT 29/16 A3005 RMK A01 T02930159  RH  044%=      5-min Rain = 0
KMC5 040206Z 16006KT 29/16 A3005 RMK A01 T02930159  RH  044%=      5-min Rain = 0
KMC5 040207Z 15006KT 29/16 A3006 RMK A01 T02920159  RH  045%=      5-min Rain = 0
KMC5 040208Z 15006KT 29/16 A3006 RMK A01 T02910160  RH  045%=      5-min Rain = 0
KMC5 040209Z 16006KT 29/16 A3006 RMK A01 T02900161  RH  046%=      5-min Rain = 0
KMC5 040210Z 16006KT 29/16 A3006 RMK A01 T02890162  RH  046%=      5-min Rain = 0
KMC5 040211Z 16006KT 29/16 A3006 RMK A01 T02880162  RH  046%=      5-min Rain = 0
KMC5 040212Z 16006KT 29/16 A3006 RMK A01 T02880161  RH  046%=      5-min Rain = 0
KMC5 040213Z 16006KT 29/16 A3006 RMK A01 T02870162  RH  047%=      5-min Rain = 0
KMC5 040214Z 16006KT 29/16 A3006 RMK A01 T02860162  RH  047%=      5-min Rain = 0
KMC5 040215Z 16006KT 29/16 A3006 RMK A01 T02850162  RH  047%=      5-min Rain = 0
KMC5 040216Z 15006KT 29/16 A3006 RMK A01 T02850162  RH  047%=      5-min Rain = 0
KMC5 040217Z 15006KT 29/16 A3006 RMK A01 T02850163  RH  048%=      5-min Rain = 0
KMC5 040218Z 15006KT 28/16 A3006 RMK A01 T02840162  RH  048%=      5-min Rain = 0
KMC5 040219Z 15006KT 28/16 A3006 RMK A01 T02840162  RH  047%=      5-min Rain = 0
KMC5 040220Z 16006KT 28/16 A3006 RMK A01 T02840161  RH  047%=      5-min Rain = 0
KMC5 040221Z 16006KT 29/16 A3006 RMK A01 T02850161  RH  047%=      5-min Rain = 0
KMC5 040222Z 16005KT 29/16 A3006 RMK A01 T02850161  RH  047%=      5-min Rain = 0
KMC5 040223Z 16005KT 29/16 A3006 RMK A01 T02850161  RH  047%=      5-min Rain = 0
KMC5 040224Z 17005KT 29/16 A3006 RMK A01 T02850160  RH  047%=      5-min Rain = 0
KMC5 040225Z 17005KT 29/16 A3006 RMK A01 T02860160  RH  046%=      5-min Rain = 0
KMC5 040226Z 17005KT 29/16 A3006 RMK A01 T02860159  RH  046%=      5-min Rain = 0
KMC5 040227Z 17005KT 29/16 A3006 RMK A01 T02870159  RH  046%=      5-min Rain = 0
KMC5 040228Z 17005KT 29/16 A3006 RMK A01 T02870160  RH  046%=      5-min Rain = 0
KMC5 040229Z 16004KT 29/16 A3006 RMK A01 T02870159  RH  046%=      5-min Rain = 0
KMC5 040230Z 17005KT 29/16 A3007 RMK A01 T02880160  RH  046%=      5-min Rain = 0
KMC5 040231Z 17004KT 29/16 A3007 RMK A01 T02870161  RH  046%=      5-min Rain = 0
KMC5 040232Z 17004KT 29/16 A3007 RMK A01 T02860161  RH  047%=      5-min Rain = 0
KMC5 040233Z 17004KT 29/16 A3007 RMK A01 T02860162  RH  047%=      5-min Rain = 0
KMC5 040234Z 17004KT 29/16 A3007 RMK A01 T02850162  RH  047%=      5-min Rain = 0
KMC5 040235Z 17005KT 28/16 A3007 RMK A01 T02840163  RH  048%=      5-min Rain = 0
KMC5 040236Z 17005KT 28/16 A3007 RMK A01 T02830162  RH  048%=      5-min Rain = 0
KMC5 040237Z 17005KT 28/16 A3007 RMK A01 T02830162  RH  048%=      5-min Rain = 0
KMC5 040238Z 16004KT 28/16 A3007 RMK A01 T02830162  RH  048%=      5-min Rain = 0
KMC5 040239Z 16005KT 28/16 A3007 RMK A01 T02830163  RH  048%=      5-min Rain = 0
KMC5 040240Z 16004KT 28/16 A3007 RMK A01 T02830164  RH  048%=      5-min Rain = 0
KMC5 040241Z 16005KT 28/16 A3007 RMK A01 T02820163  RH  048%=      5-min Rain = 0
KMC5 040242Z 16004KT 28/16 A3007 RMK A01 T02820162  RH  048%=      5-min Rain = 0
KMC5 040243Z 16005KT 28/16 A3007 RMK A01 T02830161  RH  048%=      5-min Rain = 0
KMC5 040244Z 16005KT 28/16 A3007 RMK A01 T02830161  RH  047%=      5-min Rain = 0
KMC5 040245Z 16005KT 28/16 A3007 RMK A01 T02840160  RH  047%=      5-min Rain = 0
KMC5 040246Z 16006KT 28/16 A3007 RMK A01 T02840162  RH  048%=      5-min Rain = 0
KMC5 040247Z 16006KT 28/16 A3007 RMK A01 T02840163  RH  048%=      5-min Rain = 0
KMC5 040248Z 17006KT 28/16 A3007 RMK A01 T02840162  RH  048%=      5-min Rain = 0
KMC5 040249Z 16006KT 28/16 A3007 RMK A01 T02840162  RH  048%=      5-min Rain = 0
KMC5 040250Z 16006KT 28/16 A3007 RMK A01 T02840162  RH  048%=      5-min Rain = 0
KMC5 040251Z 16006KT 28/16 A3008 RMK A01 T02830162  RH  048%=      5-min Rain = 0
KMC5 040252Z 16006KT 28/16 A3008 RMK A01 T02830162  RH  048%=      5-min Rain = 0
KMC5 040253Z 16006KT 28/16 A3008 RMK A01 T02830162  RH  048%=      5-min Rain = 0
KMC5 040254Z 16006KT 28/16 A3008 RMK A01 T02820161  RH  048%=      5-min Rain = 0
KMC5 040255Z 16006KT 28/16 A3008 RMK A01 T02820162  RH  048%=      5-min Rain = 0
KMC5 040256Z 16006KT 28/16 A3008 RMK A01 T02820160  RH  047%=      5-min Rain = 0
KMC5 040257Z 15006KT 28/16 A3008 RMK A01 T02830160  RH  047%=      5-min Rain = 0
KMC5 040258Z 15005KT 28/16 A3008 RMK A01 T02830162  RH  048%=      5-min Rain = 0
KMC5 040259Z 15005KT 28/16 A3008 RMK A01 T02820163  RH  048%=      5-min Rain = 0
KMC5 040300Z 15006KT 28/16 A3008 RMK A01 T02820163  RH  049%=      5-min Rain = 0
KMC5 040301Z 15006KT 28/16 A3008 RMK A01 T02810164  RH  049%=      5-min Rain = 0
KMC5 040302Z 15006KT 28/16 A3008 RMK A01 T02800163  RH  049%=      5-min Rain = 0
KMC5 040303Z 15006KT 28/16 A3008 RMK A01 T02790162  RH  049%=      5-min Rain = 0
KMC5 040304Z 15005KT 28/16 A3008 RMK A01 T02790162  RH  049%=      5-min Rain = 0
KMC5 040305Z 15006KT 28/16 A3008 RMK A01 T02790162  RH  049%=      5-min Rain = 0
KMC5 040306Z 14005KT 28/16 A3008 RMK A01 T02790162  RH  049%=      5-min Rain = 0
KMC5 040307Z 14006KT 28/16 A3008 RMK A01 T02790162  RH  049%=      5-min Rain = 0
KMC5 040308Z 14006KT 28/16 A3009 RMK A01 T02790161  RH  048%=      5-min Rain = 0
KMC5 040309Z 14005KT 28/16 A3009 RMK A01 T02800160  RH  048%=      5-min Rain = 0
KMC5 040310Z 14005KT 28/16 A3009 RMK A01 T02810160  RH  048%=      5-min Rain = 0
KMC5 040311Z 14005KT 28/16 A3009 RMK A01 T02810160  RH  048%=      5-min Rain = 0
KMC5 040312Z 14005KT 28/16 A3009 RMK A01 T02810159  RH  047%=      5-min Rain = 0
KMC5 040313Z 14005KT 28/16 A3009 RMK A01 T02810159  RH  047%=      5-min Rain = 0
KMC5 040314Z 14005KT 28/16 A3009 RMK A01 T02820158  RH  047%=      5-min Rain = 0
KMC5 040315Z 14005KT 28/16 A3009 RMK A01 T02820158  RH  047%=      5-min Rain = 0
KMC5 040316Z 14005KT 28/16 A3009 RMK A01 T02830158  RH  047%=      5-min Rain = 0
KMC5 040317Z 14006KT 28/16 A3009 RMK A01 T02830159  RH  047%=      5-min Rain = 0
KMC5 040318Z 14006KT 28/16 A3009 RMK A01 T02830159  RH  047%=      5-min Rain = 0
KMC5 040319Z 14006KT 28/16 A3009 RMK A01 T02830159  RH  047%=      5-min Rain = 0
KMC5 040320Z 14006KT 28/16 A3009 RMK A01 T02820159  RH  047%=      5-min Rain = 0
KMC5 040321Z 14007KT 28/16 A3009 RMK A01 T02820158  RH  047%=      5-min Rain = 0
KMC5 040322Z 14007KT 28/16 A3009 RMK A01 T02820156  RH  046%=      5-min Rain = 0
KMC5 040323Z 14007KT 28/16 A3009 RMK A01 T02830157  RH  046%=      5-min Rain = 0
KMC5 040324Z 15006KT 28/16 A3009 RMK A01 T02830158  RH  046%=      5-min Rain = 0
KMC5 040325Z 15006KT 28/16 A3009 RMK A01 T02830158  RH  047%=      5-min Rain = 0
KMC5 040326Z 16006KT 28/16 A3009 RMK A01 T02830159  RH  047%=      5-min Rain = 0
KMC5 040327Z 16006KT 28/16 A3009 RMK A01 T02810159  RH  047%=      5-min Rain = 0
KMC5 040328Z 17006KT 28/16 A3009 RMK A01 T02800160  RH  048%=      5-min Rain = 0
KMC5 040329Z 17007KT 28/16 A3009 RMK A01 T02790161  RH  049%=      5-min Rain = 0
KMC5 040330Z 18006KT 28/16 A301 RMK A01 T02770160  RH  049%=      5-min Rain = 0
KMC5 040331Z 18007KT 28/16 A301 RMK A01 T02770162  RH  050%=      5-min Rain = 0
KMC5 040332Z 18007KT 28/16 A301 RMK A01 T02760162  RH  050%=      5-min Rain = 0
KMC5 040333Z 18007KT 28/16 A301 RMK A01 T02760163  RH  050%=      5-min Rain = 0
KMC5 040334Z 17007KT 28/16 A301 RMK A01 T02750161  RH  050%=      5-min Rain = 0
KMC5 040335Z 17007KT 28/16 A301 RMK A01 T02760160  RH  049%=      5-min Rain = 0
KMC5 040336Z 17006KT 28/16 A301 RMK A01 T02760160  RH  049%=      5-min Rain = 0
KMC5 040337Z 16006KT 28/16 A301 RMK A01 T02770161  RH  049%=      5-min Rain = 0
KMC5 040338Z 16006KT 28/16 A301 RMK A01 T02770160  RH  049%=      5-min Rain = 0
KMC5 040339Z 16006KT 28/16 A301 RMK A01 T02770158  RH  048%=      5-min Rain = 0
KMC5 040340Z 16006KT 28/16 A301 RMK A01 T02780158  RH  048%=      5-min Rain = 0
KMC5 040341Z 16006KT 28/16 A301 RMK A01 T02780158  RH  048%=      5-min Rain = 0
KMC5 040342Z 15006KT 28/16 A301 RMK A01 T02780159  RH  048%=      5-min Rain = 0
KMC5 040343Z 15005KT 28/16 A301 RMK A01 T02780159  RH  048%=      5-min Rain = 0
KMC5 040344Z 15005KT 28/16 A301 RMK A01 T02780160  RH  048%=      5-min Rain = 0
KMC5 040345Z 15005KT 28/16 A301 RMK A01 T02780160  RH  049%=      5-min Rain = 0
KMC5 040346Z 15005KT 28/16 A301 RMK A01 T02770160  RH  049%=      5-min Rain = 0
KMC5 040347Z 15005KT 28/16 A301 RMK A01 T02760160  RH  049%=      5-min Rain = 0
KMC5 040348Z 15005KT 28/16 A3011 RMK A01 T02760160  RH  049%=      5-min Rain = 0
KMC5 040349Z 15006KT 28/16 A3011 RMK A01 T02760160  RH  049%=      5-min Rain = 0
KMC5 040350Z 15006KT 28/16 A3011 RMK A01 T02750160  RH  049%=      5-min Rain = 0
KMC5 040351Z 15006KT 28/16 A3011 RMK A01 T02760160  RH  049%=      5-min Rain = 0
KMC5 040352Z 15006KT 28/16 A3011 RMK A01 T02760160  RH  049%=      5-min Rain = 0
KMC5 040353Z 15007KT 28/16 A3011 RMK A01 T02760159  RH  049%=      5-min Rain = 0
KMC5 040354Z 15007KT 28/16 A3011 RMK A01 T02770158  RH  048%=      5-min Rain = 0
KMC5 040355Z 15007KT 28/16 A3011 RMK A01 T02770159  RH  048%=      5-min Rain = 0
KMC5 040356Z 15006KT 28/16 A3011 RMK A01 T02770160  RH  049%=      5-min Rain = 0
KMC5 040357Z 15006KT 28/16 A3011 RMK A01 T02770161  RH  049%=      5-min Rain = 0
KMC5 040358Z 15006KT 28/16 A3011 RMK A01 T02760160  RH  049%=      5-min Rain = 0
KMC5 040359Z 15006KT 28/16 A3011 RMK A01 T02760160  RH  049%=      5-min Rain = 0
KMC5 040400Z 15006KT 28/16 A3011 RMK A01 T02760160  RH  049%=      5-min Rain = 0
KMC5 040401Z 15006KT 28/16 A3011 RMK A01 T02750161  RH  050%=      5-min Rain = 0
KMC5 040402Z 15006KT 28/16 A3011 RMK A01 T02750162  RH  050%=      5-min Rain = 0
KMC5 040403Z 15005KT 27/16 A3011 RMK A01 T02740161  RH  050%=      5-min Rain = 0
KMC5 040404Z 15006KT 27/16 A3011 RMK A01 T02740161  RH  050%=      5-min Rain = 0
KMC5 040405Z 15005KT 27/16 A3011 RMK A01 T02730161  RH  050%=      5-min Rain = 0
KMC5 040406Z 16005KT 27/16 A3011 RMK A01 T02730161  RH  050%=      5-min Rain = 0
KMC5 040407Z 15006KT 27/16 A301 RMK A01 T02730160  RH  050%=      5-min Rain = 0
KMC5 040408Z 15005KT 27/16 A301 RMK A01 T02730160  RH  050%=      5-min Rain = 0
KMC5 040409Z 16005KT 27/16 A301 RMK A01 T02730161  RH  050%=      5-min Rain = 0
KMC5 040410Z 15006KT 27/16 A301 RMK A01 T02730161  RH  050%=      5-min Rain = 0
KMC5 040411Z 16006KT 27/16 A301 RMK A01 T02730162  RH  050%=      5-min Rain = 0
KMC5 040412Z 16006KT 27/16 A3011 RMK A01 T02730161  RH  051%=      5-min Rain = 0
KMC5 040413Z 15006KT 27/16 A3011 RMK A01 T02730161  RH  051%=      5-min Rain = 0
KMC5 040414Z 15006KT 27/16 A3011 RMK A01 T02720162  RH  051%=      5-min Rain = 0
KMC5 040415Z 15006KT 27/16 A3011 RMK A01 T02720161  RH  051%=      5-min Rain = 0
KMC5 040416Z 16006KT 27/16 A3011 RMK A01 T02720160  RH  050%=      5-min Rain = 0
KMC5 040417Z 15006KT 27/16 A3011 RMK A01 T02720160  RH  050%=      5-min Rain = 0
KMC5 040418Z 15006KT 27/16 A3011 RMK A01 T02730161  RH  050%=      5-min Rain = 0
KMC5 040419Z 15007KT 27/16 A3011 RMK A01 T02730161  RH  050%=      5-min Rain = 0
KMC5 040420Z 16007KT 27/16 A3011 RMK A01 T02730161  RH  050%=      5-min Rain = 0
KMC5 040421Z 16007KT 27/16 A301 RMK A01 T02730160  RH  050%=      5-min Rain = 0
KMC5 040422Z 16008KT 27/16 A301 RMK A01 T02730160  RH  050%=      5-min Rain = 0
KMC5 040423Z 16007KT 27/16 A301 RMK A01 T02730160  RH  050%=      5-min Rain = 0
KMC5 040424Z 17008KT 27/16 A301 RMK A01 T02730159  RH  050%=      5-min Rain = 0
KMC5 040425Z 17007KT 27/16 A301 RMK A01 T02740160  RH  050%=      5-min Rain = 0
KMC5 040426Z 17007KT 27/16 A301 RMK A01 T02740161  RH  050%=      5-min Rain = 0
KMC5 040427Z 17007KT 27/16 A301 RMK A01 T02740160  RH  050%=      5-min Rain = 0
KMC5 040428Z 17008KT 27/16 A301 RMK A01 T02740160  RH  050%=      5-min Rain = 0
KMC5 040429Z 17007KT 27/16 A301 RMK A01 T02740160  RH  050%=      5-min Rain = 0
KMC5 040430Z 17007KT 27/16 A301 RMK A01 T02740160  RH  050%=      5-min Rain = 0
KMC5 040431Z 17007KT 27/16 A301 RMK A01 T02740160  RH  050%=      5-min Rain = 0
KMC5 040432Z 17007KT 27/16 A301 RMK A01 T02740160  RH  050%=      5-min Rain = 0
KMC5 040433Z 17007KT 27/16 A301 RMK A01 T02740160  RH  050%=      5-min Rain = 0
KMC5 040434Z 17007KT 27/16 A301 RMK A01 T02740161  RH  050%=      5-min Rain = 0
KMC5 040435Z 17007KT 27/16 A301 RMK A01 T02730161  RH  050%=      5-min Rain = 0
KMC5 040436Z 17007KT 27/16 A301 RMK A01 T02720161  RH  050%=      5-min Rain = 0
KMC5 040437Z 18007KT 27/16 A301 RMK A01 T02720160  RH  050%=      5-min Rain = 0
KMC5 040438Z 17006KT 27/16 A3011 RMK A01 T02720160  RH  050%=      5-min Rain = 0
KMC5 040439Z 17006KT 27/16 A301 RMK A01 T02720161  RH  051%=      5-min Rain = 0
KMC5 040440Z 17005KT 27/16 A301 RMK A01 T02720161  RH  051%=      5-min Rain = 0
KMC5 040441Z 17006KT 27/16 A301 RMK A01 T02710161  RH  051%=      5-min Rain = 0
KMC5 040442Z 17005KT 27/16 A301 RMK A01 T02710161  RH  051%=      5-min Rain = 0
KMC5 040443Z 16006KT 27/16 A301 RMK A01 T02710161  RH  051%=      5-min Rain = 0
KMC5 040444Z 17005KT 27/16 A301 RMK A01 T02700160  RH  051%=      5-min Rain = 0
KMC5 040445Z 16005KT 27/16 A301 RMK A01 T02700161  RH  051%=      5-min Rain = 0
KMC5 040446Z 17005KT 27/16 A301 RMK A01 T02700161  RH  051%=      5-min Rain = 0
KMC5 040447Z 17005KT 27/16 A301 RMK A01 T02700161  RH  051%=      5-min Rain = 0
KMC5 040448Z 17006KT 27/16 A301 RMK A01 T02700160  RH  051%=      5-min Rain = 0
KMC5 040449Z 17006KT 27/16 A301 RMK A01 T02700159  RH  051%=      5-min Rain = 0
KMC5 040450Z 17006KT 27/16 A301 RMK A01 T02710160  RH  051%=      5-min Rain = 0
KMC5 040451Z 17006KT 27/16 A301 RMK A01 T02710161  RH  051%=      5-min Rain = 0
KMC5 040452Z 17006KT 27/16 A301 RMK A01 T02710160  RH  051%=      5-min Rain = 0
KMC5 040453Z 17006KT 27/16 A301 RMK A01 T02710160  RH  051%=      5-min Rain = 0
KMC5 040454Z 17007KT 27/16 A301 RMK A01 T02710160  RH  051%=      5-min Rain = 0
KMC5 040455Z 17006KT 27/16 A301 RMK A01 T02700159  RH  051%=      5-min Rain = 0
KMC5 040456Z 17007KT 27/16 A301 RMK A01 T02710161  RH  051%=      5-min Rain = 0
KMC5 040457Z 17007KT 27/16 A301 RMK A01 T02710161  RH  051%=      5-min Rain = 0
KMC5 040458Z 17007KT 27/16 A301 RMK A01 T02710161  RH  051%=      5-min Rain = 0
KMC5 040459Z 17006KT 27/16 A301 RMK A01 T02710160  RH  051%=      5-min Rain = 0

Page generated in 0.0773 seconds.